Wetterdaten: Sonntag, 18.04.2021
Datum Zeit Temp. Aussen Temp. o. S. Temp +5cm Feuchte Auss Luftdruck Regen Sonnenschein Regendauer Solar Windben Empfang
18.04.2021 00:00 8,0 C 6,7 C 4,5 C 68 % 1023,3 hPa 0,0 l/m 0 min 0 min 0 W/m 9,7 km/h (2 Bft) 97,87 %
18.04.2021 00:02 8,0 C 6,7 C 4,5 C 68 % 1023,3 hPa 0,0 l/m 0 min 0 min 0 W/m 3,2 km/h (1 Bft) 92,50 %
18.04.2021 00:04 7,9 C 6,7 C 4,5 C 68 % 1023,2 hPa 0,0 l/m 0 min 0 min 0 W/m 16,1 km/h (3 Bft) 97,87 %
18.04.2021 00:08 7,8 C 6,7 C 4,5 C 68 % 1023,3 hPa 0,0 l/m 0 min 0 min 0 W/m 16,1 km/h (3 Bft) 98,94 %
18.04.2021 00:10 7,8 C 6,7 C 4,5 C 68 % 1023,3 hPa 0,0 l/m 0 min 0 min 0 W/m 12,9 km/h (3 Bft) 95,74 %
18.04.2021 00:12 7,8 C 6,7 C 4,5 C 68 % 1023,3 hPa 0,0 l/m 0 min 0 min 0 W/m 3,2 km/h (1 Bft) 100,00 %
18.04.2021 00:14 7,8 C 6,7 C 3,9 C 68 % 1023,3 hPa 0,0 l/m 0 min 0 min 0 W/m 6,4 km/h (2 Bft) 100,00 %
18.04.2021 00:16 7,8 C 6,7 C 3,9 C 68 % 1023,3 hPa 0,0 l/m 0 min 0 min 0 W/m 3,2 km/h (1 Bft) 95,74 %
18.04.2021 00:18 7,7 C 6,7 C 3,9 C 68 % 1023,3 hPa 0,0 l/m 0 min 0 min 0 W/m 3,2 km/h (1 Bft) 100,00 %
18.04.2021 00:20 7,6 C 6,7 C 3,9 C 68 % 1023,4 hPa 0,0 l/m 0 min 0 min 0 W/m 3,2 km/h (1 Bft) 100,00 %
18.04.2021 00:22 7,6 C 6,7 C 3,9 C 68 % 1023,4 hPa 0,0 l/m 0 min 0 min 0 W/m 6,4 km/h (2 Bft) 100,00 %
18.04.2021 00:24 7,6 C 6,7 C 3,9 C 69 % 1023,4 hPa 0,0 l/m 0 min 0 min 0 W/m 6,4 km/h (2 Bft) 100,00 %
18.04.2021 00:26 7,5 C 6,7 C 3,9 C 68 % 1023,4 hPa 0,0 l/m 0 min 0 min 0 W/m 9,7 km/h (2 Bft) 100,00 %
18.04.2021 00:28 7,5 C 6,7 C 3,9 C 68 % 1023,4 hPa 0,0 l/m 0 min 0 min 0 W/m 9,7 km/h (2 Bft) 100,00 %
18.04.2021 00:30 7,5 C 6,7 C 3,9 C 68 % 1023,4 hPa 0,0 l/m 0 min 0 min 0 W/m 6,4 km/h (2 Bft) 97,87 %
18.04.2021 00:32 7,5 C 6,7 C 3,9 C 68 % 1023,4 hPa 0,0 l/m 0 min 0 min 0 W/m 9,7 km/h (2 Bft) 100,00 %
18.04.2021 00:34 7,4 C 6,7 C 3,9 C 69 % 1023,4 hPa 0,0 l/m 0 min 0 min 0 W/m 19,3 km/h (3 Bft) 97,87 %
18.04.2021 00:36 7,4 C 6,1 C 3,9 C 69 % 1023,4 hPa 0,0 l/m 0 min 0 min 0 W/m 9,7 km/h (2 Bft) 100,00 %
18.04.2021 00:38 7,4 C 6,1 C 3,9 C 69 % 1023,4 hPa 0,0 l/m 0 min 0 min 0 W/m 3,2 km/h (1 Bft) 100,00 %
18.04.2021 00:40 7,4 C 6,7 C 3,9 C 69 % 1023,4 hPa 0,0 l/m 0 min 0 min 0 W/m 3,2 km/h (1 Bft) 100,00 %
18.04.2021 00:42 7,4 C 6,1 C 3,9 C 69 % 1023,4 hPa 0,0 l/m 0 min 0 min 0 W/m 9,7 km/h (2 Bft) 100,00 %
18.04.2021 00:44 7,3 C 6,1 C 3,9 C 69 % 1023,4 hPa 0,0 l/m 0 min 0 min 0 W/m 3,2 km/h (1 Bft) 97,87 %
18.04.2021 00:46 7,3 C 6,1 C 3,9 C 69 % 1023,4 hPa 0,0 l/m 0 min 0 min 0 W/m 6,4 km/h (2 Bft) 97,87 %
18.04.2021 00:48 7,3 C 6,1 C 3,9 C 69 % 1023,4 hPa 0,0 l/m 0 min 0 min 0 W/m 6,4 km/h (2 Bft) 95,74 %
18.04.2021 00:50 7,2 C 6,1 C 3,9 C 69 % 1023,4 hPa 0,0 l/m 0 min 0 min 0 W/m 9,7 km/h (2 Bft) 97,83 %
18.04.2021 00:52 7,2 C 6,1 C 3,9 C 69 % 1023,4 hPa 0,0 l/m 0 min 0 min 0 W/m 6,4 km/h (2 Bft) 97,87 %
18.04.2021 00:54 7,2 C 6,1 C 3,9 C 69 % 1023,4 hPa 0,0 l/m 0 min 0 min 0 W/m 3,2 km/h (1 Bft) 97,87 %
18.04.2021 00:56 7,1 C 6,1 C 3,4 C 69 % 1023,3 hPa 0,0 l/m 0 min 0 min 0 W/m 6,4 km/h (2 Bft) 97,87 %
18.04.2021 00:58 7,1 C 6,1 C 3,4 C 70 % 1023,4 hPa 0,0 l/m 0 min 0 min 0 W/m 9,7 km/h (2 Bft) 97,87 %
18.04.2021 01:00 7,1 C 6,1 C 3,4 C 70 % 1023,3 hPa 0,0 l/m 0 min 0 min 0 W/m 6,4 km/h (2 Bft) 97,87 %
18.04.2021 01:02 7,1 C 6,1 C 3,4 C 70 % 1023,3 hPa 0,0 l/m 0 min 0 min 0 W/m 3,2 km/h (1 Bft) 97,83 %
18.04.2021 01:04 7,0 C 6,1 C 3,4 C 70 % 1023,3 hPa 0,0 l/m 0 min 0 min 0 W/m 3,2 km/h (1 Bft) 97,87 %
18.04.2021 01:06 7,0 C 5,6 C 3,4 C 70 % 1023,3 hPa 0,0 l/m 0 min 0 min 0 W/m 0,0 km/h (0 Bft) 97,87 %
18.04.2021 01:08 7,0 C 5,6 C 3,4 C 70 % 1023,4 hPa 0,0 l/m 0 min 0 min 0 W/m 0,0 km/h (0 Bft) 97,92 %
18.04.2021 01:10 7,0 C 5,6 C 3,4 C 70 % 1023,5 hPa 0,0 l/m 0 min 0 min 0 W/m 3,2 km/h (1 Bft) 97,87 %
18.04.2021 01:12 7,0 C 5,6 C 3,4 C 71 % 1023,5 hPa 0,0 l/m 0 min 0 min 0 W/m 6,4 km/h (2 Bft) 97,87 %
18.04.2021 01:14 6,9 C 5,6 C 3,4 C 71 % 1023,5 hPa 0,0 l/m 0 min 0 min 0 W/m 6,4 km/h (2 Bft) 41,18 %
18.04.2021 01:16 6,9 C 5,6 C 3,4 C 71 % 1023,6 hPa 0,0 l/m 0 min 0 min 0 W/m 3,2 km/h (1 Bft) 97,87 %
18.04.2021 01:18 6,9 C 5,6 C 2,8 C 71 % 1023,5 hPa 0,0 l/m 0 min 0 min 0 W/m 3,2 km/h (1 Bft) 97,87 %
18.04.2021 01:20 6,9 C 5,6 C 2,8 C 71 % 1023,5 hPa 0,0 l/m 0 min 0 min 0 W/m 6,4 km/h (2 Bft) 97,87 %
18.04.2021 01:22 6,8 C 5,6 C 2,8 C 71 % 1023,5 hPa 0,0 l/m 0 min 0 min 0 W/m 6,4 km/h (2 Bft) 97,87 %
18.04.2021 01:24 6,8 C 5,0 C 2,8 C 71 % 1023,5 hPa 0,0 l/m 0 min 0 min 0 W/m 3,2 km/h (1 Bft) 97,87 %
18.04.2021 01:26 6,8 C 5,0 C 2,8 C 71 % 1023,5 hPa 0,0 l/m 0 min 0 min 0 W/m 0,0 km/h (0 Bft) 97,83 %
18.04.2021 01:28 6,7 C 5,0 C 2,8 C 71 % 1023,5 hPa 0,0 l/m 0 min 0 min 0 W/m 0,0 km/h (0 Bft) 97,87 %
18.04.2021 01:30 6,7 C 5,0 C 2,8 C 72 % 1023,5 hPa 0,0 l/m 0 min 0 min 0 W/m 3,2 km/h (1 Bft) 97,87 %
18.04.2021 01:32 6,6 C 5,0 C 2,8 C 72 % 1023,5 hPa 0,0 l/m 0 min 0 min 0 W/m 3,2 km/h (1 Bft) 97,92 %
18.04.2021 01:34 6,6 C 5,0 C 2,8 C 72 % 1023,5 hPa 0,0 l/m 0 min 0 min 0 W/m 3,2 km/h (1 Bft) 97,87 %
18.04.2021 01:36 6,5 C 5,0 C 2,8 C 72 % 1023,4 hPa 0,0 l/m 0 min 0 min 0 W/m 6,4 km/h (2 Bft) 95,74 %
18.04.2021 01:38 6,5 C 5,0 C 2,8 C 72 % 1023,4 hPa 0,0 l/m 0 min 0 min 0 W/m 6,4 km/h (2 Bft) 93,48 %
18.04.2021 01:40 6,5 C 5,0 C 2,8 C 72 % 1023,4 hPa 0,0 l/m 0 min 0 min 0 W/m 3,2 km/h (1 Bft) 97,87 %
18.04.2021 01:42 6,4 C 5,0 C 2,8 C 72 % 1023,4 hPa 0,0 l/m 0 min 0 min 0 W/m 6,4 km/h (2 Bft) 97,87 %
18.04.2021 01:44 6,4 C 5,0 C 2,8 C 73 % 1023,4 hPa 0,0 l/m 0 min 0 min 0 W/m 3,2 km/h (1 Bft) 95,74 %
18.04.2021 01:46 6,4 C 5,0 C 2,8 C 73 % 1023,4 hPa 0,0 l/m 0 min 0 min 0 W/m 3,2 km/h (1 Bft) 95,74 %
18.04.2021 01:48 6,3 C 5,0 C 2,8 C 73 % 1023,4 hPa 0,0 l/m 0 min 0 min 0 W/m 3,2 km/h (1 Bft) 95,74 %
18.04.2021 01:50 6,3 C 5,0 C 2,8 C 73 % 1023,5 hPa 0,0 l/m 0 min 0 min 0 W/m 3,2 km/h (1 Bft) 95,35 %
18.04.2021 01:52 6,2 C 5,0 C 2,3 C 73 % 1023,4 hPa 0,0 l/m 0 min 0 min 0 W/m 6,4 km/h (2 Bft) 95,74 %
18.04.2021 01:54 6,1 C 4,4 C 2,3 C 73 % 1023,4 hPa 0,0 l/m 0 min 0 min 0 W/m 6,4 km/h (2 Bft) 95,74 %
18.04.2021 01:56 6,1 C 4,4 C 2,3 C 73 % 1023,4 hPa 0,0 l/m 0 min 0 min 0 W/m 3,2 km/h (1 Bft) 95,74 %
18.04.2021 01:58 6,1 C 4,4 C 2,3 C 74 % 1023,3 hPa 0,0 l/m 0 min 0 min 0 W/m 6,4 km/h (2 Bft) 95,74 %
18.04.2021 02:00 6,0 C 4,4 C 2,3 C 74 % 1023,3 hPa 0,0 l/m 0 min 0 min 0 W/m 3,2 km/h (1 Bft) 93,62 %
18.04.2021 02:02 6,0 C 4,4 C 2,3 C 74 % 1023,4 hPa 0,0 l/m 0 min 0 min 0 W/m 3,2 km/h (1 Bft) 95,74 %
18.04.2021 02:04 6,0 C 4,4 C 2,3 C 74 % 1023,3 hPa 0,0 l/m 0 min 0 min 0 W/m 6,4 km/h (2 Bft) 93,62 %
18.04.2021 02:06 6,0 C 5,0 C 2,3 C 74 % 1023,3 hPa 0,0 l/m 0 min 0 min 0 W/m 6,4 km/h (2 Bft) 95,74 %
18.04.2021 02:08 5,9 C 5,0 C 2,3 C 74 % 1023,3 hPa 0,0 l/m 0 min 0 min 0 W/m 6,4 km/h (2 Bft) 95,74 %
18.04.2021 02:10 5,9 C 5,0 C 2,3 C 74 % 1023,3 hPa 0,0 l/m 0 min 0 min 0 W/m 6,4 km/h (2 Bft) 95,74 %
18.04.2021 02:12 5,9 C 4,4 C 2,3 C 75 % 1023,3 hPa 0,0 l/m 0 min 0 min 0 W/m 3,2 km/h (1 Bft) 95,65 %
18.04.2021 02:14 5,9 C 4,4 C 2,3 C 75 % 1023,3 hPa 0,0 l/m 0 min 0 min 0 W/m 3,2 km/h (1 Bft) 95,74 %
18.04.2021 02:16 5,8 C 4,4 C 2,3 C 75 % 1023,3 hPa 0,0 l/m 0 min 0 min 0 W/m 0,0 km/h (0 Bft) 93,62 %
18.04.2021 02:18 5,8 C 4,4 C 2,3 C 75 % 1023,2 hPa 0,0 l/m 0 min 0 min 0 W/m 0,0 km/h (0 Bft) 93,62 %
18.04.2021 02:20 5,8 C 4,4 C 2,3 C 75 % 1023,2 hPa 0,0 l/m 0 min 0 min 0 W/m 3,2 km/h (1 Bft) 95,74 %
18.04.2021 02:22 5,8 C 4,4 C 2,3 C 75 % 1023,2 hPa 0,0 l/m 0 min 0 min 0 W/m 3,2 km/h (1 Bft) 95,74 %
18.04.2021 02:24 5,8 C 4,4 C 2,3 C 75 % 1023,2 hPa 0,0 l/m 0 min 0 min 0 W/m 9,7 km/h (2 Bft) 97,83 %
18.04.2021 02:26 5,7 C 4,4 C 2,3 C 75 % 1023,2 hPa 0,0 l/m 0 min 0 min 0 W/m 3,2 km/h (1 Bft) 97,87 %
18.04.2021 02:28 5,7 C 4,4 C 2,3 C 75 % 1023,2 hPa 0,0 l/m 0 min 0 min 0 W/m 3,2 km/h (1 Bft) 93,62 %
18.04.2021 02:30 5,7 C 4,4 C 2,3 C 75 % 1023,2 hPa 0,0 l/m 0 min 0 min 0 W/m 3,2 km/h (1 Bft) 95,74 %
18.04.2021 02:32 5,7 C 4,4 C 2,3 C 76 % 1023,2 hPa 0,0 l/m 0 min 0 min 0 W/m 6,4 km/h (2 Bft) 100,00 %
18.04.2021 02:34 5,6 C 4,4 C 2,3 C 76 % 1023,2 hPa 0,0 l/m 0 min 0 min 0 W/m 3,2 km/h (1 Bft) 97,87 %
18.04.2021 02:36 5,6 C 4,4 C 2,3 C 76 % 1023,2 hPa 0,0 l/m 0 min 0 min 0 W/m 3,2 km/h (1 Bft) 95,65 %
18.04.2021 02:38 5,6 C 4,4 C 2,3 C 76 % 1023,2 hPa 0,0 l/m 0 min 0 min 0 W/m 3,2 km/h (1 Bft) 97,96 %
18.04.2021 02:40 5,6 C 4,4 C 2,3 C 76 % 1023,2 hPa 0,0 l/m 0 min 0 min 0 W/m 0,0 km/h (0 Bft) 97,87 %
18.04.2021 02:42 5,6 C 4,4 C 2,3 C 76 % 1023,2 hPa 0,0 l/m 0 min 0 min 0 W/m 3,2 km/h (1 Bft) 97,87 %
18.04.2021 02:44 5,6 C 4,4 C 2,3 C 76 % 1023,2 hPa 0,0 l/m 0 min 0 min 0 W/m 3,2 km/h (1 Bft) 95,74 %
18.04.2021 02:46 5,5 C 4,4 C 2,3 C 76 % 1023,2 hPa 0,0 l/m 0 min 0 min 0 W/m 0,0 km/h (0 Bft) 95,74 %
18.04.2021 02:48 5,5 C 4,4 C 2,3 C 77 % 1023,1 hPa 0,0 l/m 0 min 0 min 0 W/m 0,0 km/h (0 Bft) 97,83 %
18.04.2021 02:50 5,5 C 4,4 C 2,3 C 77 % 1023,2 hPa 0,0 l/m 0 min 0 min 0 W/m 0,0 km/h (0 Bft) 97,87 %
18.04.2021 02:52 5,5 C 4,4 C 2,3 C 77 % 1023,1 hPa 0,0 l/m 0 min 0 min 0 W/m 3,2 km/h (1 Bft) 97,87 %
18.04.2021 02:54 5,5 C 4,4 C 2,3 C 77 % 1023,1 hPa 0,0 l/m 0 min 0 min 0 W/m 3,2 km/h (1 Bft) 97,87 %
18.04.2021 02:56 5,5 C 4,4 C 2,3 C 77 % 1023,1 hPa 0,0 l/m 0 min 0 min 0 W/m 3,2 km/h (1 Bft) 97,87 %
18.04.2021 02:58 5,4 C 4,4 C 2,3 C 77 % 1023,1 hPa 0,0 l/m 0 min 0 min 0 W/m 3,2 km/h (1 Bft) 97,87 %
18.04.2021 03:00 5,4 C 4,4 C 2,3 C 77 % 1023,1 hPa 0,0 l/m 0 min 0 min 0 W/m 3,2 km/h (1 Bft) 97,83 %
18.04.2021 03:02 5,4 C 4,4 C 2,3 C 78 % 1023,1 hPa 0,0 l/m 0 min 0 min 0 W/m 6,4 km/h (2 Bft) 95,74 %
18.04.2021 03:04 5,4 C 4,4 C 2,3 C 78 % 1023,1 hPa 0,0 l/m 0 min 0 min 0 W/m 3,2 km/h (1 Bft) 97,87 %
18.04.2021 03:06 5,4 C 4,4 C 2,3 C 78 % 1023,1 hPa 0,0 l/m 0 min 0 min 0 W/m 3,2 km/h (1 Bft) 97,87 %
18.04.2021 03:08 5,3 C 4,4 C 2,3 C 78 % 1023,1 hPa 0,0 l/m 0 min 0 min 0 W/m 3,2 km/h (1 Bft) 97,87 %
18.04.2021 03:10 5,3 C 4,4 C 1,7 C 78 % 1023,1 hPa 0,0 l/m 0 min 0 min 0 W/m 3,2 km/h (1 Bft) 97,87 %
18.04.2021 03:12 5,3 C 3,9 C 1,7 C 78 % 1023,1 hPa 0,0 l/m 0 min 0 min 0 W/m 6,4 km/h (2 Bft) 97,83 %
18.04.2021 03:14 5,3 C 3,9 C 1,7 C 78 % 1023,1 hPa 0,0 l/m 0 min 0 min 0 W/m 6,4 km/h (2 Bft) 95,74 %
18.04.2021 03:16 5,2 C 3,9 C 1,7 C 78 % 1023,1 hPa 0,0 l/m 0 min 0 min 0 W/m 3,2 km/h (1 Bft) 97,87 %
18.04.2021 03:18 5,1 C 3,9 C 1,7 C 79 % 1023,1 hPa 0,0 l/m 0 min 0 min 0 W/m 3,2 km/h (1 Bft) 95,74 %
18.04.2021 03:20 5,1 C 3,9 C 1,7 C 79 % 1023,1 hPa 0,0 l/m 0 min 0 min 0 W/m 3,2 km/h (1 Bft) 48,65 %
18.04.2021 03:22 5,1 C 3,9 C 1,7 C 79 % 1023,1 hPa 0,0 l/m 0 min 0 min 0 W/m 3,2 km/h (1 Bft) 100,00 %
18.04.2021 03:24 5,1 C 3,9 C 1,7 C 79 % 1023,1 hPa 0,0 l/m 0 min 0 min 0 W/m 0,0 km/h (0 Bft) 100,00 %
18.04.2021 03:26 5,0 C 3,9 C 1,7 C 79 % 1023,0 hPa 0,0 l/m 0 min 0 min 0 W/m 3,2 km/h (1 Bft) 100,00 %
18.04.2021 03:28 5,0 C 3,9 C 1,7 C 79 % 1023,0 hPa 0,0 l/m 0 min 0 min 0 W/m 6,4 km/h (2 Bft) 97,87 %
18.04.2021 03:30 5,0 C 3,9 C 1,7 C 79 % 1022,9 hPa 0,0 l/m 0 min 0 min 0 W/m 3,2 km/h (1 Bft) 97,87 %
18.04.2021 03:32 4,9 C 3,9 C 1,7 C 79 % 1023,0 hPa 0,0 l/m 0 min 0 min 0 W/m 3,2 km/h (1 Bft) 97,87 %
18.04.2021 03:34 4,9 C 3,9 C 1,7 C 79 % 1022,9 hPa 0,0 l/m 0 min 0 min 0 W/m 6,4 km/h (2 Bft) 100,00 %
18.04.2021 03:36 4,9 C 3,9 C 1,7 C 80 % 1022,9 hPa 0,0 l/m 0 min 0 min 0 W/m 0,0 km/h (0 Bft) 97,83 %
18.04.2021 03:38 4,9 C 3,9 C 1,7 C 80 % 1022,9 hPa 0,0 l/m 0 min 0 min 0 W/m 3,2 km/h (1 Bft) 95,74 %
18.04.2021 03:40 4,8 C 3,9 C 1,7 C 80 % 1022,9 hPa 0,0 l/m 0 min 0 min 0 W/m 3,2 km/h (1 Bft) 100,00 %
18.04.2021 03:42 4,8 C 3,9 C 1,7 C 80 % 1022,9 hPa 0,0 l/m 0 min 0 min 0 W/m 3,2 km/h (1 Bft) 100,00 %
18.04.2021 03:44 4,8 C 3,9 C 1,7 C 80 % 1022,9 hPa 0,0 l/m 0 min 0 min 0 W/m 6,4 km/h (2 Bft) 97,87 %
18.04.2021 03:46 4,8 C 3,9 C 1,7 C 80 % 1022,8 hPa 0,0 l/m 0 min 0 min 0 W/m 3,2 km/h (1 Bft) 97,87 %
18.04.2021 03:48 4,7 C 3,9 C 1,7 C 80 % 1022,9 hPa 0,0 l/m 0 min 0 min 0 W/m 0,0 km/h (0 Bft) 97,83 %
18.04.2021 03:50 4,7 C 3,9 C 1,7 C 80 % 1022,8 hPa 0,0 l/m 0 min 0 min 0 W/m 3,2 km/h (1 Bft) 97,87 %
18.04.2021 03:52 4,6 C 3,9 C 1,7 C 80 % 1022,8 hPa 0,0 l/m 0 min 0 min 0 W/m 6,4 km/h (2 Bft) 97,87 %
18.04.2021 03:54 4,6 C 3,9 C 1,1 C 80 % 1022,7 hPa 0,0 l/m 0 min 0 min 0 W/m 3,2 km/h (1 Bft) 97,87 %
18.04.2021 03:56 4,6 C 3,9 C 1,1 C 81 % 1022,8 hPa 0,0 l/m 0 min 0 min 0 W/m 3,2 km/h (1 Bft) 95,74 %
18.04.2021 03:58 4,5 C 3,9 C 1,1 C 81 % 1022,8 hPa 0,0 l/m 0 min 0 min 0 W/m 3,2 km/h (1 Bft) 97,87 %
18.04.2021 04:00 4,5 C 3,9 C 1,7 C 81 % 1022,8 hPa 0,0 l/m 0 min 0 min 0 W/m 0,0 km/h (0 Bft) 97,83 %
18.04.2021 04:02 4,5 C 3,9 C 1,7 C 81 % 1022,8 hPa 0,0 l/m 0 min 0 min 0 W/m 0,0 km/h (0 Bft) 97,06 %
18.04.2021 04:04 4,5 C 3,9 C 1,7 C 81 % 1022,7 hPa 0,0 l/m 0 min 0 min 0 W/m 3,2 km/h (1 Bft) 91,49 %
18.04.2021 04:06 4,5 C 3,9 C 1,7 C 81 % 1022,7 hPa 0,0 l/m 0 min 0 min 0 W/m 3,2 km/h (1 Bft) 95,74 %
18.04.2021 04:08 4,5 C 3,9 C 1,7 C 82 % 1022,8 hPa 0,0 l/m 0 min 0 min 0 W/m 0,0 km/h (0 Bft) 97,87 %
18.04.2021 04:10 4,5 C 3,9 C 1,7 C 82 % 1022,8 hPa 0,0 l/m 0 min 0 min 0 W/m 0,0 km/h (0 Bft) 97,87 %
18.04.2021 04:12 4,5 C 3,9 C 1,7 C 82 % 1022,7 hPa 0,0 l/m 0 min 0 min 0 W/m 3,2 km/h (1 Bft) 97,83 %
18.04.2021 04:14 4,5 C 3,9 C 1,7 C 82 % 1022,8 hPa 0,0 l/m 0 min 0 min 0 W/m 3,2 km/h (1 Bft) 97,87 %
18.04.2021 04:16 4,5 C 3,9 C 1,7 C 82 % 1022,8 hPa 0,0 l/m 0 min 0 min 0 W/m 0,0 km/h (0 Bft) 97,87 %
18.04.2021 04:18 4,5 C 3,9 C 1,7 C 82 % 1022,7 hPa 0,0 l/m 0 min 0 min 0 W/m 3,2 km/h (1 Bft) 95,74 %
18.04.2021 04:20 4,5 C 3,9 C 1,7 C 82 % 1022,8 hPa 0,0 l/m 0 min 0 min 0 W/m 3,2 km/h (1 Bft) 97,67 %
18.04.2021 04:22 4,5 C 3,9 C 1,7 C 83 % 1022,7 hPa 0,0 l/m 0 min 0 min 0 W/m 3,2 km/h (1 Bft) 97,83 %
18.04.2021 04:24 4,5 C 3,9 C 1,7 C 83 % 1022,7 hPa 0,0 l/m 0 min 0 min 0 W/m 0,0 km/h (0 Bft) 100,00 %
18.04.2021 04:26 4,5 C 3,9 C 1,7 C 83 % 1022,7 hPa 0,0 l/m 0 min 0 min 0 W/m 6,4 km/h (2 Bft) 100,00 %
18.04.2021 04:28 4,5 C 3,9 C 1,7 C 83 % 1022,7 hPa 0,0 l/m 0 min 0 min 0 W/m 3,2 km/h (1 Bft) 100,00 %
18.04.2021 04:30 4,5 C 3,9 C 1,7 C 83 % 1022,7 hPa 0,0 l/m 0 min 0 min 0 W/m 3,2 km/h (1 Bft) 100,00 %
18.04.2021 04:32 4,5 C 3,9 C 1,7 C 83 % 1022,7 hPa 0,0 l/m 0 min 0 min 0 W/m 3,2 km/h (1 Bft) 100,00 %
18.04.2021 04:34 4,5 C 4,4 C 1,7 C 84 % 1022,7 hPa 0,0 l/m 0 min 0 min 0 W/m 0,0 km/h (0 Bft) 100,00 %
18.04.2021 04:36 4,6 C 4,4 C 1,7 C 84 % 1022,7 hPa 0,0 l/m 0 min 0 min 0 W/m 3,2 km/h (1 Bft) 100,00 %
18.04.2021 04:38 4,5 C 4,4 C 1,7 C 84 % 1022,6 hPa 0,0 l/m 0 min 0 min 0 W/m 3,2 km/h (1 Bft) 100,00 %
18.04.2021 04:40 4,5 C 3,9 C 1,7 C 84 % 1022,7 hPa 0,0 l/m 0 min 0 min 0 W/m 6,4 km/h (2 Bft) 97,87 %
18.04.2021 04:42 4,6 C 3,9 C 1,7 C 84 % 1022,7 hPa 0,0 l/m 0 min 0 min 0 W/m 3,2 km/h (1 Bft) 100,00 %
18.04.2021 04:44 4,6 C 3,9 C 1,7 C 84 % 1022,7 hPa 0,0 l/m 0 min 0 min 0 W/m 6,4 km/h (2 Bft) 100,00 %
18.04.2021 04:46 4,6 C 3,9 C 1,7 C 84 % 1022,7 hPa 0,0 l/m 0 min 0 min 0 W/m 6,4 km/h (2 Bft) 100,00 %
18.04.2021 04:48 4,6 C 3,9 C 1,7 C 84 % 1022,8 hPa 0,0 l/m 0 min 0 min 0 W/m 3,2 km/h (1 Bft) 100,00 %
18.04.2021 04:50 4,6 C 3,9 C 1,7 C 84 % 1022,7 hPa 0,0 l/m 0 min 0 min 0 W/m 3,2 km/h (1 Bft) 100,00 %
18.04.2021 04:52 4,6 C 3,9 C 1,7 C 84 % 1022,7 hPa 0,0 l/m 0 min 0 min 0 W/m 3,2 km/h (1 Bft) 100,00 %
18.04.2021 04:54 4,6 C 3,9 C 1,7 C 84 % 1022,8 hPa 0,0 l/m 0 min 0 min 0 W/m 9,7 km/h (2 Bft) 100,00 %
18.04.2021 04:56 4,6 C 3,9 C 1,7 C 84 % 1022,8 hPa 0,0 l/m 0 min 0 min 0 W/m 3,2 km/h (1 Bft) 100,00 %
18.04.2021 04:58 4,6 C 3,9 C 1,7 C 84 % 1022,8 hPa 0,0 l/m 0 min 0 min 0 W/m 6,4 km/h (2 Bft) 97,87 %
18.04.2021 05:00 4,6 C 3,9 C 1,7 C 84 % 1022,8 hPa 0,0 l/m 0 min 0 min 0 W/m 6,4 km/h (2 Bft) 100,00 %
18.04.2021 05:02 4,6 C 3,9 C 1,7 C 84 % 1022,8 hPa 0,0 l/m 0 min 0 min 0 W/m 6,4 km/h (2 Bft) 97,56 %
18.04.2021 05:04 4,6 C 3,9 C 1,7 C 84 % 1022,8 hPa 0,0 l/m 0 min 0 min 0 W/m 6,4 km/h (2 Bft) 100,00 %
18.04.2021 05:06 4,6 C 3,9 C 1,7 C 84 % 1022,8 hPa 0,0 l/m 0 min 0 min 0 W/m 6,4 km/h (2 Bft) 97,92 %
18.04.2021 05:08 4,6 C 3,9 C 1,7 C 84 % 1022,8 hPa 0,0 l/m 0 min 0 min 0 W/m 6,4 km/h (2 Bft) 100,00 %
18.04.2021 05:10 4,6 C 3,9 C 1,7 C 84 % 1022,8 hPa 0,0 l/m 0 min 0 min 0 W/m 3,2 km/h (1 Bft) 100,00 %
18.04.2021 05:12 4,6 C 3,9 C 1,7 C 84 % 1022,7 hPa 0,0 l/m 0 min 0 min 0 W/m 3,2 km/h (1 Bft) 100,00 %
18.04.2021 05:14 4,6 C 3,9 C 1,7 C 84 % 1022,7 hPa 0,0 l/m 0 min 0 min 0 W/m 9,7 km/h (2 Bft) 100,00 %
18.04.2021 05:16 4,6 C 4,4 C 2,3 C 84 % 1022,8 hPa 0,0 l/m 0 min 0 min 0 W/m 12,9 km/h (3 Bft) 100,00 %
18.04.2021 05:18 4,6 C 4,4 C 1,7 C 84 % 1022,8 hPa 0,0 l/m 0 min 0 min 0 W/m 6,4 km/h (2 Bft) 100,00 %
18.04.2021 05:20 4,6 C 4,4 C 1,7 C 84 % 1022,7 hPa 0,0 l/m 0 min 0 min 0 W/m 9,7 km/h (2 Bft) 100,00 %
18.04.2021 05:22 4,6 C 4,4 C 1,7 C 84 % 1022,8 hPa 0,0 l/m 0 min 0 min 0 W/m 6,4 km/h (2 Bft) 97,87 %
18.04.2021 05:24 4,6 C 4,4 C 1,7 C 84 % 1022,8 hPa 0,0 l/m 0 min 0 min 0 W/m 6,4 km/h (2 Bft) 100,00 %
18.04.2021 05:26 4,6 C 4,4 C 1,7 C 84 % 1022,8 hPa 0,0 l/m 0 min 0 min 0 W/m 9,7 km/h (2 Bft) 100,00 %
18.04.2021 05:28 4,7 C 4,4 C 1,7 C 84 % 1022,8 hPa 0,0 l/m 0 min 0 min 0 W/m 6,4 km/h (2 Bft) 100,00 %
18.04.2021 05:30 4,6 C 4,4 C 1,7 C 84 % 1022,8 hPa 0,0 l/m 0 min 0 min 0 W/m 9,7 km/h (2 Bft) 97,87 %
18.04.2021 05:32 4,6 C 4,4 C 2,3 C 84 % 1022,8 hPa 0,0 l/m 0 min 0 min 0 W/m 6,4 km/h (2 Bft) 100,00 %
18.04.2021 05:35 4,6 C 4,4 C 2,3 C 84 % 1022,8 hPa 0,0 l/m 0 min 0 min 0 W/m 9,7 km/h (2 Bft) 100,00 %
18.04.2021 05:36 4,6 C 4,4 C 2,3 C 84 % 1022,8 hPa 0,0 l/m 0 min 0 min 0 W/m 12,9 km/h (3 Bft) 100,00 %
18.04.2021 05:38 4,6 C 4,4 C 2,3 C 84 % 1022,8 hPa 0,0 l/m 0 min 0 min 0 W/m 9,7 km/h (2 Bft) 100,00 %
18.04.2021 05:40 4,6 C 4,4 C 2,3 C 84 % 1022,8 hPa 0,0 l/m 0 min 0 min 0 W/m 9,7 km/h (2 Bft) 97,87 %
18.04.2021 05:42 4,6 C 4,4 C 2,3 C 85 % 1022,8 hPa 0,0 l/m 0 min 0 min 0 W/m 12,9 km/h (3 Bft) 100,00 %
18.04.2021 05:44 4,6 C 4,4 C 2,3 C 85 % 1022,8 hPa 0,0 l/m 0 min 0 min 0 W/m 9,7 km/h (2 Bft) 100,00 %
18.04.2021 05:46 4,6 C 4,4 C 2,3 C 85 % 1022,8 hPa 0,0 l/m 0 min 0 min 0 W/m 9,7 km/h (2 Bft) 100,00 %
18.04.2021 05:48 4,6 C 4,4 C 2,3 C 85 % 1022,8 hPa 0,0 l/m 0 min 0 min 0 W/m 6,4 km/h (2 Bft) 100,00 %
18.04.2021 05:50 4,6 C 4,4 C 2,3 C 85 % 1022,8 hPa 0,0 l/m 0 min 0 min 0 W/m 6,4 km/h (2 Bft) 100,00 %
18.04.2021 05:52 4,6 C 4,4 C 2,3 C 85 % 1022,8 hPa 0,0 l/m 0 min 0 min 0 W/m 9,7 km/h (2 Bft) 100,00 %
18.04.2021 05:54 4,6 C 4,4 C 2,3 C 85 % 1022,8 hPa 0,0 l/m 0 min 0 min 0 W/m 6,4 km/h (2 Bft) 97,87 %
18.04.2021 05:56 4,6 C 4,4 C 2,3 C 85 % 1022,8 hPa 0,0 l/m 0 min 0 min 0 W/m 9,7 km/h (2 Bft) 97,83 %
18.04.2021 05:58 4,6 C 4,4 C 2,3 C 85 % 1022,8 hPa 0,0 l/m 0 min 0 min 0 W/m 12,9 km/h (3 Bft) 95,74 %
18.04.2021 06:00 4,6 C 3,9 C 1,7 C 85 % 1022,8 hPa 0,0 l/m 0 min 0 min 0 W/m 12,9 km/h (3 Bft) 97,87 %
18.04.2021 06:02 4,6 C 3,9 C 1,7 C 85 % 1022,7 hPa 0,0 l/m 0 min 0 min 0 W/m 6,4 km/h (2 Bft) 91,67 %
18.04.2021 06:04 4,6 C 3,9 C 1,7 C 85 % 1022,8 hPa 0,0 l/m 0 min 0 min 0 W/m 9,7 km/h (2 Bft) 95,74 %
18.04.2021 06:06 4,6 C 3,9 C 1,7 C 85 % 1022,8 hPa 0,0 l/m 0 min 0 min 0 W/m 9,7 km/h (2 Bft) 95,65 %
18.04.2021 06:08 4,6 C 3,9 C 1,7 C 86 % 1022,8 hPa 0,0 l/m 0 min 0 min 0 W/m 12,9 km/h (3 Bft) 93,62 %
18.04.2021 06:10 4,6 C 3,9 C 1,7 C 86 % 1022,8 hPa 0,0 l/m 0 min 0 min 0 W/m 6,4 km/h (2 Bft) 95,74 %
18.04.2021 06:12 4,6 C 3,9 C 1,7 C 85 % 1022,8 hPa 0,0 l/m 0 min 0 min 0 W/m 6,4 km/h (2 Bft) 93,62 %
18.04.2021 06:14 4,6 C 3,9 C 1,7 C 86 % 1022,7 hPa 0,0 l/m 0 min 0 min 0 W/m 9,7 km/h (2 Bft) 93,62 %
18.04.2021 06:16 4,6 C 3,9 C 1,7 C 86 % 1022,8 hPa 0,0 l/m 0 min 0 min 0 W/m 6,4 km/h (2 Bft) 95,74 %
18.04.2021 06:18 4,6 C 3,9 C 1,7 C 86 % 1022,8 hPa 0,0 l/m 0 min 0 min 0 W/m 3,2 km/h (1 Bft) 93,48 %
18.04.2021 06:20 4,6 C 3,9 C 1,7 C 86 % 1022,7 hPa 0,0 l/m 0 min 0 min 0 W/m 3,2 km/h (1 Bft) 95,74 %
18.04.2021 06:22 4,6 C 3,9 C 1,7 C 86 % 1022,7 hPa 0,0 l/m 0 min 0 min 0 W/m 6,4 km/h (2 Bft) 93,62 %
18.04.2021 06:26 4,6 C 3,9 C 1,7 C 86 % 1022,7 hPa 0,0 l/m 0 min 0 min 0 W/m 9,7 km/h (2 Bft) 94,12 %
18.04.2021 06:28 4,6 C 3,9 C 1,7 C 86 % 1022,7 hPa 0,0 l/m 0 min 0 min 0 W/m 6,4 km/h (2 Bft) 95,74 %
18.04.2021 06:30 4,6 C 3,9 C 1,7 C 87 % 1022,7 hPa 0,0 l/m 0 min 0 min 0 W/m 6,4 km/h (2 Bft) 95,74 %
18.04.2021 06:32 4,6 C 3,9 C 1,7 C 87 % 1022,7 hPa 0,0 l/m 0 min 0 min 0 W/m 9,7 km/h (2 Bft) 93,62 %
18.04.2021 06:34 4,6 C 3,9 C 1,7 C 87 % 1022,7 hPa 0,0 l/m 0 min 0 min 0 W/m 9,7 km/h (2 Bft) 95,65 %
18.04.2021 06:36 4,5 C 3,9 C 1,7 C 87 % 1022,6 hPa 0,0 l/m 0 min 0 min 0 W/m 9,7 km/h (2 Bft) 93,62 %
18.04.2021 06:38 4,6 C 3,9 C 1,7 C 87 % 1022,6 hPa 0,0 l/m 0 min 0 min 0 W/m 3,2 km/h (1 Bft) 94,92 %
18.04.2021 06:40 4,5 C 3,9 C 1,7 C 87 % 1022,7 hPa 0,0 l/m 0 min 0 min 0 W/m 6,4 km/h (2 Bft) 94,29 %
18.04.2021 06:42 4,5 C 3,9 C 1,7 C 87 % 1022,6 hPa 0,0 l/m 0 min 0 min 0 W/m 3,2 km/h (1 Bft) 95,74 %
18.04.2021 06:44 4,6 C 3,9 C 1,7 C 87 % 1022,7 hPa 0,0 l/m 0 min 0 min 0 W/m 9,7 km/h (2 Bft) 93,62 %
18.04.2021 06:46 4,5 C 3,9 C 1,7 C 87 % 1022,6 hPa 0,0 l/m 0 min 0 min 0 W/m 9,7 km/h (2 Bft) 93,48 %
18.04.2021 06:48 4,5 C 3,9 C 1,7 C 87 % 1022,7 hPa 0,0 l/m 0 min 0 min 0 W/m 9,7 km/h (2 Bft) 93,62 %
18.04.2021 06:50 4,6 C 3,9 C 1,7 C 87 % 1022,7 hPa 0,0 l/m 0 min 0 min 0 W/m 9,7 km/h (2 Bft) 95,74 %
18.04.2021 06:52 4,5 C 3,9 C 1,7 C 87 % 1022,8 hPa 0,0 l/m 0 min 0 min 0 W/m 9,7 km/h (2 Bft) 97,87 %
18.04.2021 06:54 4,6 C 4,4 C 2,3 C 87 % 1022,8 hPa 0,0 l/m 0 min 0 min 2 W/m 6,4 km/h (2 Bft) 94,55 %
18.04.2021 06:56 4,5 C 4,4 C 2,3 C 87 % 1022,8 hPa 0,0 l/m 0 min 0 min 5 W/m 9,7 km/h (2 Bft) 95,74 %
18.04.2021 06:58 4,5 C 4,4 C 2,3 C 87 % 1022,8 hPa 0,0 l/m 0 min 0 min 5 W/m 6,4 km/h (2 Bft) 97,87 %
18.04.2021 07:00 4,6 C 4,4 C 2,3 C 87 % 1022,8 hPa 0,0 l/m 0 min 0 min 6 W/m 6,4 km/h (2 Bft) 97,87 %
18.04.2021 07:02 4,6 C 4,4 C 2,3 C 87 % 1022,8 hPa 0,0 l/m 0 min 0 min 7 W/m 3,2 km/h (1 Bft) 97,87 %
18.04.2021 07:04 4,6 C 4,4 C 2,3 C 88 % 1022,8 hPa 0,0 l/m 0 min 0 min 8 W/m 6,4 km/h (2 Bft) 95,74 %
18.04.2021 07:06 4,6 C 4,4 C 2,3 C 88 % 1022,8 hPa 0,0 l/m 0 min 0 min 10 W/m 6,4 km/h (2 Bft) 97,83 %
18.04.2021 07:08 4,6 C 4,4 C 2,3 C 88 % 1022,7 hPa 0,0 l/m 0 min 0 min 11 W/m 6,4 km/h (2 Bft) 97,87 %
18.04.2021 07:10 4,6 C 4,4 C 2,3 C 88 % 1022,7 hPa 0,0 l/m 0 min 0 min 13 W/m 12,9 km/h (3 Bft) 97,87 %
18.04.2021 07:12 4,6 C 4,4 C 2,3 C 88 % 1022,7 hPa 0,0 l/m 0 min 0 min 14 W/m 3,2 km/h (1 Bft) 95,74 %
18.04.2021 07:14 4,6 C 4,4 C 2,3 C 88 % 1022,6 hPa 0,0 l/m 0 min 0 min 16 W/m 9,7 km/h (2 Bft) 97,87 %
18.04.2021 07:16 4,7 C 4,4 C 2,3 C 88 % 1022,6 hPa 0,0 l/m 0 min 0 min 17 W/m 6,4 km/h (2 Bft) 97,87 %
18.04.2021 07:18 4,7 C 4,4 C 2,3 C 88 % 1022,6 hPa 0,0 l/m 0 min 0 min 19 W/m 6,4 km/h (2 Bft) 97,83 %
18.04.2021 07:20 4,7 C 4,4 C 2,3 C 88 % 1022,6 hPa 0,0 l/m 0 min 0 min 20 W/m 12,9 km/h (3 Bft) 95,74 %
18.04.2021 07:22 4,8 C 4,4 C 2,3 C 89 % 1022,8 hPa 0,0 l/m 0 min 0 min 22 W/m 12,9 km/h (3 Bft) 97,87 %
18.04.2021 07:24 4,8 C 4,4 C 2,3 C 89 % 1022,8 hPa 0,0 l/m 0 min 0 min 25 W/m 12,9 km/h (3 Bft) 97,87 %
18.04.2021 07:26 4,8 C 4,4 C 2,3 C 89 % 1022,8 hPa 0,0 l/m 0 min 0 min 27 W/m 9,7 km/h (2 Bft) 97,87 %
18.04.2021 07:28 4,8 C 4,4 C 2,3 C 89 % 1022,8 hPa 0,0 l/m 0 min 0 min 31 W/m 9,7 km/h (2 Bft) 95,74 %
18.04.2021 07:30 4,8 C 4,4 C 2,3 C 89 % 1022,8 hPa 0,0 l/m 0 min 0 min 34 W/m 9,7 km/h (2 Bft) 97,83 %
18.04.2021 07:32 4,8 C 4,4 C 2,3 C 89 % 1022,9 hPa 0,0 l/m 0 min 0 min 36 W/m 9,7 km/h (2 Bft) 97,87 %
18.04.2021 07:34 4,8 C 4,4 C 2,3 C 89 % 1022,8 hPa 0,0 l/m 0 min 0 min 40 W/m 6,4 km/h (2 Bft) 97,87 %
18.04.2021 07:36 4,8 C 4,4 C 2,3 C 89 % 1022,9 hPa 0,0 l/m 0 min 0 min 41 W/m 12,9 km/h (3 Bft) 97,87 %
18.04.2021 07:38 4,9 C 5,0 C 2,3 C 89 % 1022,9 hPa 0,0 l/m 0 min 0 min 37 W/m 16,1 km/h (3 Bft) 87,50 %
18.04.2021 07:40 4,9 C 5,0 C 2,3 C 89 % 1022,9 hPa 0,0 l/m 0 min 0 min 33 W/m 12,9 km/h (3 Bft) 97,87 %
18.04.2021 07:42 4,9 C 5,0 C 2,3 C 89 % 1022,9 hPa 0,0 l/m 0 min 0 min 32 W/m 16,1 km/h (3 Bft) 97,83 %
18.04.2021 07:44 4,9 C 5,0 C 2,3 C 89 % 1022,9 hPa 0,0 l/m 0 min 0 min 33 W/m 9,7 km/h (2 Bft) 95,74 %
18.04.2021 07:46 4,9 C 5,0 C 2,3 C 89 % 1022,9 hPa 0,0 l/m 0 min 0 min 35 W/m 6,4 km/h (2 Bft) 91,49 %
18.04.2021 07:48 4,9 C 5,0 C 2,3 C 89 % 1023,0 hPa 0,0 l/m 0 min 0 min 39 W/m 6,4 km/h (2 Bft) 74,47 %
18.04.2021 07:50 4,9 C 5,0 C 2,8 C 89 % 1022,9 hPa 0,0 l/m 0 min 0 min 41 W/m 9,7 km/h (2 Bft) 87,23 %
18.04.2021 07:52 4,9 C 5,0 C 2,8 C 89 % 1023,0 hPa 0,0 l/m 0 min 0 min 46 W/m 3,2 km/h (1 Bft) 93,62 %
18.04.2021 07:54 5,0 C 5,0 C 2,8 C 89 % 1023,0 hPa 0,0 l/m 0 min 0 min 49 W/m 3,2 km/h (1 Bft) 95,65 %
18.04.2021 07:56 5,0 C 5,0 C 2,8 C 89 % 1023,0 hPa 0,0 l/m 0 min 0 min 52 W/m 3,2 km/h (1 Bft) 93,62 %
18.04.2021 07:58 5,0 C 5,0 C 2,8 C 89 % 1023,1 hPa 0,0 l/m 0 min 0 min 53 W/m 0,0 km/h (0 Bft) 97,37 %
18.04.2021 08:00 5,0 C 5,0 C 2,8 C 89 % 1023,0 hPa 0,0 l/m 0 min 0 min 54 W/m 3,2 km/h (1 Bft) 97,87 %
18.04.2021 08:02 5,0 C 5,0 C 2,8 C 89 % 1023,0 hPa 0,0 l/m 0 min 0 min 58 W/m 3,2 km/h (1 Bft) 97,87 %
18.04.2021 08:04 5,0 C 5,0 C 2,8 C 89 % 1023,0 hPa 0,0 l/m 0 min 0 min 61 W/m 3,2 km/h (1 Bft) 95,74 %
18.04.2021 08:06 5,0 C 5,0 C 2,8 C 89 % 1023,0 hPa 0,0 l/m 0 min 0 min 65 W/m 3,2 km/h (1 Bft) 97,83 %
18.04.2021 08:08 5,1 C 5,0 C 2,8 C 89 % 1023,0 hPa 0,0 l/m 0 min 0 min 71 W/m 6,4 km/h (2 Bft) 100,00 %
18.04.2021 08:10 5,1 C 5,0 C 2,8 C 89 % 1023,0 hPa 0,0 l/m 0 min 0 min 78 W/m 3,2 km/h (1 Bft) 100,00 %
18.04.2021 08:12 5,2 C 5,6 C 2,8 C 89 % 1023,0 hPa 0,0 l/m 0 min 0 min 86 W/m 3,2 km/h (1 Bft) 100,00 %
18.04.2021 08:14 5,3 C 5,6 C 3,4 C 89 % 1022,9 hPa 0,0 l/m 0 min 0 min 97 W/m 3,2 km/h (1 Bft) 100,00 %
18.04.2021 08:16 5,3 C 5,6 C 3,4 C 90 % 1022,9 hPa 0,0 l/m 0 min 0 min 112 W/m 6,4 km/h (2 Bft) 97,87 %
18.04.2021 08:18 5,3 C 5,6 C 3,4 C 90 % 1022,9 hPa 0,0 l/m 0 min 0 min 125 W/m 6,4 km/h (2 Bft) 100,00 %
18.04.2021 08:20 5,3 C 5,6 C 3,4 C 90 % 1022,9 hPa 0,0 l/m 2 min 0 min 134 W/m 6,4 km/h (2 Bft) 100,00 %
18.04.2021 08:22 5,4 C 5,6 C 3,4 C 90 % 1023,0 hPa 0,0 l/m 2 min 0 min 136 W/m 6,4 km/h (2 Bft) 97,87 %
18.04.2021 08:24 5,4 C 6,1 C 3,4 C 90 % 1023,0 hPa 0,0 l/m 0 min 0 min 131 W/m 6,4 km/h (2 Bft) 97,87 %
18.04.2021 08:26 5,5 C 6,1 C 3,9 C 89 % 1023,0 hPa 0,0 l/m 0 min 0 min 125 W/m 9,7 km/h (2 Bft) 95,74 %
18.04.2021 08:28 5,5 C 6,1 C 3,9 C 89 % 1023,1 hPa 0,0 l/m 0 min 0 min 122 W/m 9,7 km/h (2 Bft) 100,00 %
18.04.2021 08:30 5,6 C 6,1 C 3,9 C 89 % 1023,1 hPa 0,0 l/m 0 min 0 min 125 W/m 9,7 km/h (2 Bft) 100,00 %
18.04.2021 08:32 5,6 C 6,7 C 3,9 C 89 % 1023,1 hPa 0,0 l/m 0 min 0 min 128 W/m 9,7 km/h (2 Bft) 59,57 %
18.04.2021 08:34 5,6 C 6,7 C 3,9 C 89 % 1023,1 hPa 0,0 l/m 0 min 0 min 128 W/m 12,9 km/h (3 Bft) 92,68 %
18.04.2021 08:36 5,7 C 6,7 C 3,9 C 89 % 1023,1 hPa 0,0 l/m 0 min 0 min 129 W/m 12,9 km/h (3 Bft) 97,87 %
18.04.2021 08:38 5,8 C 6,7 C 3,9 C 89 % 1023,1 hPa 0,0 l/m 0 min 0 min 138 W/m 6,4 km/h (2 Bft) 100,00 %
18.04.2021 08:40 5,8 C 6,7 C 3,9 C 89 % 1023,1 hPa 0,0 l/m 0 min 0 min 150 W/m 3,2 km/h (1 Bft) 95,74 %
18.04.2021 08:42 5,9 C 6,7 C 4,5 C 89 % 1023,1 hPa 0,0 l/m 0 min 0 min 156 W/m 6,4 km/h (2 Bft) 95,65 %
18.04.2021 08:44 5,9 C 6,7 C 4,5 C 89 % 1023,1 hPa 0,0 l/m 0 min 0 min 154 W/m 6,4 km/h (2 Bft) 97,87 %
18.04.2021 08:46 6,0 C 6,7 C 4,5 C 89 % 1023,1 hPa 0,0 l/m 0 min 0 min 149 W/m 6,4 km/h (2 Bft) 97,87 %
18.04.2021 08:48 6,0 C 7,2 C 4,5 C 89 % 1023,0 hPa 0,0 l/m 0 min 0 min 152 W/m 6,4 km/h (2 Bft) 97,87 %
18.04.2021 08:50 6,0 C 7,2 C 4,5 C 89 % 1023,1 hPa 0,0 l/m 2 min 0 min 173 W/m 6,4 km/h (2 Bft) 95,74 %
18.04.2021 08:52 6,1 C 7,2 C 4,5 C 89 % 1023,0 hPa 0,0 l/m 2 min 0 min 226 W/m 6,4 km/h (2 Bft) 97,87 %
18.04.2021 08:54 6,1 C 7,2 C 4,5 C 89 % 1023,0 hPa 0,0 l/m 2 min 0 min 213 W/m 6,4 km/h (2 Bft) 97,83 %
18.04.2021 08:56 6,3 C 7,2 C 5,0 C 89 % 1023,0 hPa 0,0 l/m 2 min 0 min 266 W/m 6,4 km/h (2 Bft) 95,74 %
18.04.2021 08:58 6,4 C 7,8 C 5,0 C 89 % 1023,0 hPa 0,0 l/m 2 min 0 min 354 W/m 9,7 km/h (2 Bft) 97,87 %
18.04.2021 09:00 6,4 C 8,3 C 5,0 C 88 % 1023,0 hPa 0,0 l/m 2 min 0 min 342 W/m 3,2 km/h (1 Bft) 95,74 %
18.04.2021 09:02 6,5 C 8,3 C 5,0 C 88 % 1023,0 hPa 0,0 l/m 2 min 0 min 233 W/m 6,4 km/h (2 Bft) 93,62 %
18.04.2021 09:04 6,6 C 7,8 C 5,0 C 88 % 1023,0 hPa 0,0 l/m 0 min 0 min 160 W/m 6,4 km/h (2 Bft) 95,74 %
18.04.2021 09:06 6,7 C 7,8 C 5,0 C 88 % 1023,0 hPa 0,0 l/m 0 min 0 min 150 W/m 3,2 km/h (1 Bft) 95,65 %
18.04.2021 09:08 6,7 C 7,8 C 5,0 C 88 % 1023,1 hPa 0,0 l/m 0 min 0 min 192 W/m 3,2 km/h (1 Bft) 93,62 %
18.04.2021 09:10 6,8 C 8,3 C 5,0 C 88 % 1023,0 hPa 0,0 l/m 2 min 0 min 238 W/m 6,4 km/h (2 Bft) 95,74 %
18.04.2021 09:12 6,9 C 7,8 C 5,0 C 88 % 1023,0 hPa 0,0 l/m 0 min 0 min 192 W/m 6,4 km/h (2 Bft) 95,74 %
18.04.2021 09:14 6,9 C 8,3 C 5,0 C 87 % 1023,0 hPa 0,0 l/m 0 min 0 min 175 W/m 6,4 km/h (2 Bft) 95,74 %
18.04.2021 09:16 6,9 C 7,8 C 5,6 C 87 % 1022,9 hPa 0,0 l/m 0 min 0 min 173 W/m 9,7 km/h (2 Bft) 95,74 %
18.04.2021 09:18 7,0 C 7,8 C 5,6 C 87 % 1022,9 hPa 0,0 l/m 0 min 0 min 166 W/m 9,7 km/h (2 Bft) 95,65 %
18.04.2021 09:20 7,0 C 7,8 C 5,6 C 87 % 1022,8 hPa 0,0 l/m 0 min 0 min 162 W/m 9,7 km/h (2 Bft) 95,74 %
18.04.2021 09:22 7,0 C 7,8 C 5,6 C 86 % 1022,9 hPa 0,0 l/m 0 min 0 min 162 W/m 12,9 km/h (3 Bft) 93,62 %
18.04.2021 09:24 7,0 C 7,8 C 5,0 C 86 % 1022,9 hPa 0,0 l/m 0 min 0 min 161 W/m 9,7 km/h (2 Bft) 95,74 %
18.04.2021 09:26 7,1 C 7,8 C 5,0 C 86 % 1022,9 hPa 0,0 l/m 0 min 0 min 161 W/m 6,4 km/h (2 Bft) 93,62 %
18.04.2021 09:28 7,1 C 7,8 C 5,0 C 86 % 1022,9 hPa 0,0 l/m 0 min 0 min 162 W/m 9,7 km/h (2 Bft) 95,74 %
18.04.2021 09:30 7,1 C 7,8 C 5,0 C 86 % 1022,9 hPa 0,0 l/m 0 min 0 min 163 W/m 9,7 km/h (2 Bft) 95,65 %
18.04.2021 09:32 7,2 C 7,8 C 5,0 C 86 % 1022,9 hPa 0,0 l/m 0 min 0 min 165 W/m 9,7 km/h (2 Bft) 89,36 %
18.04.2021 09:34 7,2 C 7,8 C 5,6 C 86 % 1022,9 hPa 0,0 l/m 0 min 0 min 171 W/m 9,7 km/h (2 Bft) 95,74 %
18.04.2021 09:36 7,2 C 7,8 C 5,6 C 85 % 1022,8 hPa 0,0 l/m 0 min 0 min 176 W/m 9,7 km/h (2 Bft) 95,74 %
18.04.2021 09:38 7,3 C 7,8 C 5,6 C 85 % 1022,8 hPa 0,0 l/m 0 min 0 min 180 W/m 6,4 km/h (2 Bft) 95,74 %
18.04.2021 09:40 7,3 C 7,8 C 5,6 C 85 % 1022,8 hPa 0,0 l/m 0 min 0 min 183 W/m 9,7 km/h (2 Bft) 95,74 %
18.04.2021 09:42 7,4 C 7,8 C 5,6 C 85 % 1022,8 hPa 0,0 l/m 0 min 0 min 186 W/m 9,7 km/h (2 Bft) 95,65 %
18.04.2021 09:44 7,4 C 8,3 C 5,6 C 85 % 1022,8 hPa 0,0 l/m 0 min 0 min 192 W/m 9,7 km/h (2 Bft) 95,74 %
18.04.2021 09:46 7,4 C 8,3 C 5,6 C 85 % 1022,8 hPa 0,0 l/m 0 min 0 min 201 W/m 16,1 km/h (3 Bft) 97,87 %
18.04.2021 09:48 7,5 C 8,3 C 5,6 C 85 % 1022,8 hPa 0,0 l/m 0 min 0 min 204 W/m 12,9 km/h (3 Bft) 97,87 %
18.04.2021 09:50 7,5 C 8,3 C 6,1 C 85 % 1022,8 hPa 0,0 l/m 0 min 0 min 211 W/m 9,7 km/h (2 Bft) 97,87 %
18.04.2021 09:52 7,5 C 8,3 C 6,1 C 84 % 1022,9 hPa 0,0 l/m 0 min 0 min 225 W/m 9,7 km/h (2 Bft) 100,00 %
18.04.2021 09:54 7,6 C 8,3 C 6,1 C 84 % 1022,9 hPa 0,0 l/m 0 min 0 min 239 W/m 16,1 km/h (3 Bft) 97,83 %
18.04.2021 09:56 7,7 C 8,9 C 6,1 C 84 % 1022,9 hPa 0,0 l/m 2 min 0 min 257 W/m 19,3 km/h (3 Bft) 100,00 %
18.04.2021 09:58 7,8 C 9,4 C 6,7 C 84 % 1022,9 hPa 0,0 l/m 2 min 0 min 292 W/m 12,9 km/h (3 Bft) 95,74 %
18.04.2021 10:00 7,9 C 11,1 C 7,3 C 84 % 1022,9 hPa 0,0 l/m 2 min 0 min 402 W/m 12,9 km/h (3 Bft) 97,87 %
18.04.2021 10:02 8,0 C 11,7 C 7,8 C 84 % 1022,8 hPa 0,0 l/m 2 min 0 min 526 W/m 9,7 km/h (2 Bft) 96,23 %
18.04.2021 10:04 8,2 C 11,1 C 7,8 C 84 % 1022,9 hPa 0,0 l/m 0 min 0 min 255 W/m 12,9 km/h (3 Bft) 97,83 %
18.04.2021 10:06 8,3 C 11,1 C 7,8 C 83 % 1022,9 hPa 0,0 l/m 0 min 0 min 242 W/m 19,3 km/h (3 Bft) 95,74 %
18.04.2021 10:08 8,4 C 10,6 C 7,3 C 83 % 1023,0 hPa 0,0 l/m 0 min 0 min 243 W/m 9,7 km/h (2 Bft) 100,00 %
18.04.2021 10:10 8,4 C 10,0 C 7,3 C 82 % 1023,0 hPa 0,0 l/m 0 min 0 min 234 W/m 19,3 km/h (3 Bft) 100,00 %
18.04.2021 10:12 8,5 C 10,0 C 7,3 C 82 % 1023,0 hPa 0,0 l/m 0 min 0 min 233 W/m 12,9 km/h (3 Bft) 100,00 %
18.04.2021 10:14 8,5 C 10,0 C 7,3 C 82 % 1023,0 hPa 0,0 l/m 0 min 0 min 234 W/m 9,7 km/h (2 Bft) 100,00 %
18.04.2021 10:16 8,6 C 10,6 C 7,8 C 81 % 1023,0 hPa 0,0 l/m 0 min 0 min 234 W/m 9,7 km/h (2 Bft) 100,00 %
18.04.2021 10:18 8,6 C 10,6 C 7,3 C 81 % 1022,9 hPa 0,0 l/m 0 min 0 min 227 W/m 12,9 km/h (3 Bft) 100,00 %
18.04.2021 10:20 8,6 C 10,6 C 7,8 C 81 % 1022,9 hPa 0,0 l/m 0 min 0 min 228 W/m 12,9 km/h (3 Bft) 97,87 %
18.04.2021 10:22 8,7 C 10,0 C 7,8 C 81 % 1022,8 hPa 0,0 l/m 0 min 0 min 241 W/m 9,7 km/h (2 Bft) 100,00 %
18.04.2021 10:24 8,8 C 10,6 C 7,8 C 81 % 1022,8 hPa 0,0 l/m 0 min 0 min 253 W/m 12,9 km/h (3 Bft) 100,00 %
18.04.2021 10:26 8,8 C 11,1 C 8,9 C 80 % 1022,8 hPa 0,0 l/m 2 min 0 min 301 W/m 9,7 km/h (2 Bft) 100,00 %
18.04.2021 10:28 8,8 C 11,7 C 8,9 C 80 % 1022,8 hPa 0,0 l/m 2 min 0 min 322 W/m 9,7 km/h (2 Bft) 100,00 %
18.04.2021 10:30 8,9 C 12,2 C 8,9 C 80 % 1022,8 hPa 0,0 l/m 0 min 0 min 251 W/m 9,7 km/h (2 Bft) 100,00 %
18.04.2021 10:32 9,0 C 12,8 C 9,5 C 80 % 1022,7 hPa 0,0 l/m 2 min 0 min 531 W/m 12,9 km/h (3 Bft) 100,00 %
18.04.2021 10:34 9,3 C 13,9 C 10,6 C 80 % 1022,7 hPa 0,0 l/m 2 min 0 min 707 W/m 6,4 km/h (2 Bft) 100,00 %
18.04.2021 10:36 9,4 C 13,9 C 11,1 C 81 % 1022,8 hPa 0,0 l/m 2 min 0 min 724 W/m 9,7 km/h (2 Bft) 100,00 %
18.04.2021 10:38 9,6 C 12,8 C 11,1 C 80 % 1022,8 hPa 0,0 l/m 2 min 0 min 732 W/m 9,7 km/h (2 Bft) 100,00 %
18.04.2021 10:40 9,8 C 12,8 C 11,7 C 79 % 1022,8 hPa 0,0 l/m 2 min 0 min 447 W/m 9,7 km/h (2 Bft) 97,83 %
18.04.2021 10:42 9,8 C 12,8 C 11,1 C 78 % 1022,8 hPa 0,0 l/m 2 min 0 min 590 W/m 6,4 km/h (2 Bft) 97,87 %
18.04.2021 10:44 9,9 C 12,2 C 10,0 C 78 % 1022,8 hPa 0,0 l/m 2 min 0 min 308 W/m 9,7 km/h (2 Bft) 97,87 %
18.04.2021 10:46 9,9 C 11,7 C 9,5 C 78 % 1022,9 hPa 0,0 l/m 0 min 0 min 291 W/m 9,7 km/h (2 Bft) 97,87 %
18.04.2021 10:48 10,0 C 11,1 C 9,5 C 78 % 1022,8 hPa 0,0 l/m 0 min 0 min 278 W/m 6,4 km/h (2 Bft) 97,87 %
18.04.2021 10:50 10,0 C 11,1 C 8,9 C 77 % 1022,8 hPa 0,0 l/m 0 min 0 min 253 W/m 6,4 km/h (2 Bft) 97,87 %
18.04.2021 10:52 10,0 C 11,1 C 8,9 C 77 % 1022,8 hPa 0,0 l/m 0 min 0 min 235 W/m 22,5 km/h (4 Bft) 97,83 %
18.04.2021 10:54 10,1 C 11,1 C 8,4 C 77 % 1022,9 hPa 0,0 l/m 0 min 0 min 227 W/m 16,1 km/h (3 Bft) 97,87 %
18.04.2021 10:56 10,1 C 10,6 C 8,4 C 76 % 1022,9 hPa 0,0 l/m 0 min 0 min 224 W/m 12,9 km/h (3 Bft) 97,87 %
18.04.2021 10:58 10,1 C 10,6 C 8,4 C 76 % 1022,9 hPa 0,0 l/m 0 min 0 min 221 W/m 16,1 km/h (3 Bft) 96,08 %
18.04.2021 11:00 10,0 C 10,6 C 7,8 C 75 % 1022,9 hPa 0,0 l/m 0 min 0 min 218 W/m 12,9 km/h (3 Bft) 97,87 %
18.04.2021 11:02 10,0 C 10,0 C 7,8 C 75 % 1022,9 hPa 0,0 l/m 0 min 0 min 215 W/m 16,1 km/h (3 Bft) 100,00 %
18.04.2021 11:04 10,0 C 10,0 C 7,8 C 75 % 1022,8 hPa 0,0 l/m 0 min 0 min 216 W/m 9,7 km/h (2 Bft) 97,87 %
18.04.2021 11:06 9,9 C 10,0 C 7,8 C 76 % 1022,8 hPa 0,0 l/m 0 min 0 min 229 W/m 12,9 km/h (3 Bft) 95,65 %
18.04.2021 11:08 9,9 C 10,6 C 7,8 C 76 % 1022,8 hPa 0,0 l/m 0 min 0 min 252 W/m 19,3 km/h (3 Bft) 97,92 %
18.04.2021 11:10 9,9 C 10,6 C 7,8 C 76 % 1022,9 hPa 0,0 l/m 0 min 0 min 272 W/m 9,7 km/h (2 Bft) 97,87 %
18.04.2021 11:12 10,0 C 10,6 C 8,4 C 76 % 1022,8 hPa 0,0 l/m 0 min 0 min 286 W/m 3,2 km/h (1 Bft) 97,87 %
18.04.2021 11:14 10,0 C 10,6 C 8,4 C 77 % 1022,9 hPa 0,0 l/m 0 min 0 min 280 W/m 12,9 km/h (3 Bft) 97,87 %
18.04.2021 11:16 10,0 C 10,6 C 8,4 C 76 % 1022,9 hPa 0,0 l/m 0 min 0 min 273 W/m 16,1 km/h (3 Bft) 97,83 %
18.04.2021 11:18 10,0 C 10,6 C 8,4 C 76 % 1022,9 hPa 0,0 l/m 0 min 0 min 278 W/m 12,9 km/h (3 Bft) 97,87 %
18.04.2021 11:20 10,1 C 11,1 C 8,4 C 77 % 1022,8 hPa 0,0 l/m 0 min 0 min 284 W/m 12,9 km/h (3 Bft) 97,87 %
18.04.2021 11:22 10,1 C 11,1 C 8,4 C 76 % 1022,8 hPa 0,0 l/m 0 min 0 min 277 W/m 12,9 km/h (3 Bft) 97,87 %
18.04.2021 11:24 10,1 C 11,1 C 8,4 C 76 % 1022,8 hPa 0,0 l/m 0 min 0 min 281 W/m 12,9 km/h (3 Bft) 97,87 %
18.04.2021 11:26 10,1 C 11,1 C 8,9 C 76 % 1022,8 hPa 0,0 l/m 0 min 0 min 289 W/m 6,4 km/h (2 Bft) 97,87 %
18.04.2021 11:28 10,2 C 11,1 C 8,9 C 76 % 1022,9 hPa 0,0 l/m 0 min 0 min 289 W/m 9,7 km/h (2 Bft) 97,83 %
18.04.2021 11:30 10,2 C 11,1 C 8,9 C 76 % 1022,9 hPa 0,0 l/m 0 min 0 min 294 W/m 3,2 km/h (1 Bft) 97,87 %
18.04.2021 11:32 10,3 C 11,1 C 8,9 C 76 % 1022,9 hPa 0,0 l/m 0 min 0 min 304 W/m 12,9 km/h (3 Bft) 93,62 %
18.04.2021 11:34 10,3 C 11,7 C 8,9 C 76 % 1022,9 hPa 0,0 l/m 0 min 0 min 331 W/m 9,7 km/h (2 Bft) 97,87 %
18.04.2021 11:36 10,4 C 12,2 C 9,5 C 77 % 1022,9 hPa 0,0 l/m 2 min 0 min 361 W/m 9,7 km/h (2 Bft) 93,62 %
18.04.2021 11:38 10,5 C 12,2 C 9,5 C 76 % 1022,9 hPa 0,0 l/m 2 min 0 min 385 W/m 16,1 km/h (3 Bft) 93,62 %
18.04.2021 11:40 10,5 C 12,2 C 10,0 C 76 % 1022,8 hPa 0,0 l/m 2 min 0 min 403 W/m 12,9 km/h (3 Bft) 95,65 %
18.04.2021 11:42 10,6 C 12,2 C 10,0 C 76 % 1022,8 hPa 0,0 l/m 2 min 0 min 390 W/m 19,3 km/h (3 Bft) 95,74 %
18.04.2021 11:44 10,7 C 12,8 C 10,0 C 76 % 1022,9 hPa 0,0 l/m 2 min 0 min 371 W/m 12,9 km/h (3 Bft) 95,74 %
18.04.2021 11:46 10,8 C 12,8 C 10,0 C 76 % 1022,8 hPa 0,0 l/m 2 min 0 min 370 W/m 19,3 km/h (3 Bft) 97,87 %
18.04.2021 11:48 10,8 C 12,8 C 10,0 C 75 % 1022,8 hPa 0,0 l/m 2 min 0 min 402 W/m 19,3 km/h (3 Bft) 97,87 %
18.04.2021 11:50 10,9 C 12,8 C 10,0 C 75 % 1022,8 hPa 0,0 l/m 2 min 0 min 391 W/m 16,1 km/h (3 Bft) 95,74 %
18.04.2021 11:52 11,0 C 13,3 C 10,6 C 75 % 1022,8 hPa 0,0 l/m 2 min 0 min 401 W/m 16,1 km/h (3 Bft) 97,83 %
18.04.2021 11:54 11,0 C 13,3 C 10,6 C 75 % 1022,8 hPa 0,0 l/m 2 min 0 min 396 W/m 16,1 km/h (3 Bft) 97,87 %
18.04.2021 11:56 11,1 C 13,3 C 10,0 C 75 % 1022,8 hPa 0,0 l/m 2 min 0 min 394 W/m 19,3 km/h (3 Bft) 97,87 %
18.04.2021 11:58 11,1 C 13,3 C 10,6 C 75 % 1022,8 hPa 0,0 l/m 2 min 0 min 428 W/m 16,1 km/h (3 Bft) 91,49 %
18.04.2021 12:00 11,3 C 13,3 C 10,6 C 75 % 1022,8 hPa 0,0 l/m 2 min 0 min 410 W/m 9,7 km/h (2 Bft) 97,87 %
18.04.2021 12:02 11,3 C 13,3 C 10,0 C 75 % 1022,8 hPa 0,0 l/m 0 min 0 min 331 W/m 12,9 km/h (3 Bft) 95,74 %
18.04.2021 12:04 11,4 C 12,8 C 10,0 C 74 % 1022,9 hPa 0,0 l/m 0 min 0 min 304 W/m 9,7 km/h (2 Bft) 97,83 %
18.04.2021 12:08 11,4 C 12,8 C 9,5 C 74 % 1022,9 hPa 0,0 l/m 0 min 0 min 258 W/m 12,9 km/h (3 Bft) 97,87 %
18.04.2021 12:10 11,4 C 12,8 C 9,5 C 73 % 1022,8 hPa 0,0 l/m 0 min 0 min 226 W/m 16,1 km/h (3 Bft) 97,87 %
18.04.2021 12:12 11,4 C 12,2 C 8,9 C 73 % 1022,9 hPa 0,0 l/m 0 min 0 min 212 W/m 16,1 km/h (3 Bft) 97,87 %
18.04.2021 12:14 11,4 C 12,2 C 8,9 C 74 % 1022,9 hPa 0,0 l/m 0 min 0 min 206 W/m 6,4 km/h (2 Bft) 97,83 %
18.04.2021 12:16 11,3 C 12,2 C 8,9 C 74 % 1022,8 hPa 0,0 l/m 0 min 0 min 205 W/m 12,9 km/h (3 Bft) 97,87 %
18.04.2021 12:18 11,3 C 11,7 C 8,9 C 73 % 1022,7 hPa 0,0 l/m 0 min 0 min 207 W/m 12,9 km/h (3 Bft) 97,87 %
18.04.2021 12:20 11,3 C 11,7 C 8,9 C 73 % 1022,8 hPa 0,0 l/m 0 min 0 min 214 W/m 16,1 km/h (3 Bft) 97,87 %
18.04.2021 12:22 11,3 C 11,7 C 8,9 C 74 % 1022,7 hPa 0,0 l/m 0 min 0 min 229 W/m 9,7 km/h (2 Bft) 100,00 %
18.04.2021 12:24 11,3 C 11,7 C 8,9 C 74 % 1022,7 hPa 0,0 l/m 0 min 0 min 253 W/m 22,5 km/h (4 Bft) 100,00 %
18.04.2021 12:26 11,3 C 11,7 C 8,9 C 74 % 1022,7 hPa 0,0 l/m 0 min 0 min 282 W/m 19,3 km/h (3 Bft) 100,00 %
18.04.2021 12:28 11,3 C 12,2 C 9,5 C 73 % 1022,7 hPa 0,0 l/m 0 min 0 min 314 W/m 12,9 km/h (3 Bft) 100,00 %
18.04.2021 12:30 11,4 C 12,8 C 9,5 C 73 % 1022,7 hPa 0,0 l/m 0 min 0 min 337 W/m 19,3 km/h (3 Bft) 100,00 %
18.04.2021 12:32 11,4 C 13,3 C 10,0 C 73 % 1022,6 hPa 0,0 l/m 0 min 0 min 348 W/m 9,7 km/h (2 Bft) 100,00 %
18.04.2021 12:34 11,4 C 13,3 C 10,0 C 73 % 1022,6 hPa 0,0 l/m 0 min 0 min 359 W/m 12,9 km/h (3 Bft) 100,00 %
18.04.2021 12:36 11,5 C 13,3 C 10,0 C 73 % 1022,6 hPa 0,0 l/m 0 min 0 min 358 W/m 12,9 km/h (3 Bft) 100,00 %
18.04.2021 12:38 11,5 C 13,9 C 10,6 C 73 % 1022,6 hPa 0,0 l/m 0 min 0 min 356 W/m 19,3 km/h (3 Bft) 100,00 %
18.04.2021 12:40 11,6 C 13,3 C 10,6 C 72 % 1022,6 hPa 0,0 l/m 0 min 0 min 337 W/m 16,1 km/h (3 Bft) 97,87 %
18.04.2021 12:42 11,6 C 13,3 C 10,6 C 72 % 1022,6 hPa 0,0 l/m 0 min 0 min 344 W/m 12,9 km/h (3 Bft) 97,87 %
18.04.2021 12:44 11,7 C 13,3 C 10,6 C 72 % 1022,6 hPa 0,0 l/m 0 min 0 min 361 W/m 12,9 km/h (3 Bft) 100,00 %
18.04.2021 12:46 11,8 C 13,3 C 10,6 C 72 % 1022,6 hPa 0,0 l/m 2 min 0 min 389 W/m 19,3 km/h (3 Bft) 100,00 %
18.04.2021 12:48 11,8 C 13,3 C 10,6 C 71 % 1022,6 hPa 0,0 l/m 2 min 0 min 421 W/m 16,1 km/h (3 Bft) 100,00 %
18.04.2021 12:50 11,9 C 13,9 C 11,1 C 71 % 1022,5 hPa 0,0 l/m 2 min 0 min 454 W/m 6,4 km/h (2 Bft) 100,00 %
18.04.2021 12:52 12,0 C 14,4 C 12,3 C 72 % 1022,5 hPa 0,0 l/m 2 min 0 min 517 W/m 12,9 km/h (3 Bft) 95,74 %
18.04.2021 12:54 12,1 C 15,6 C 13,9 C 72 % 1022,5 hPa 0,0 l/m 2 min 0 min 575 W/m 16,1 km/h (3 Bft) 100,00 %
18.04.2021 12:56 12,3 C 16,1 C 13,9 C 70 % 1022,5 hPa 0,0 l/m 2 min 0 min 575 W/m 16,1 km/h (3 Bft) 97,87 %
18.04.2021 12:58 12,4 C 15,6 C 13,4 C 70 % 1022,5 hPa 0,0 l/m 2 min 0 min 485 W/m 16,1 km/h (3 Bft) 100,00 %
18.04.2021 13:00 12,4 C 14,4 C 12,3 C 68 % 1022,5 hPa 0,0 l/m 0 min 0 min 331 W/m 12,9 km/h (3 Bft) 100,00 %
18.04.2021 13:02 12,5 C 14,4 C 11,7 C 68 % 1022,5 hPa 0,0 l/m 0 min 0 min 295 W/m 19,3 km/h (3 Bft) 95,65 %
18.04.2021 13:04 12,5 C 14,4 C 11,1 C 67 % 1022,4 hPa 0,0 l/m 0 min 0 min 278 W/m 25,7 km/h (4 Bft) 100,00 %
18.04.2021 13:06 12,6 C 13,9 C 10,6 C 66 % 1022,5 hPa 0,0 l/m 0 min 0 min 282 W/m 12,9 km/h (3 Bft) 97,87 %
18.04.2021 13:08 12,6 C 13,9 C 10,6 C 66 % 1022,5 hPa 0,0 l/m 0 min 0 min 293 W/m 16,1 km/h (3 Bft) 95,74 %
18.04.2021 13:10 12,6 C 13,3 C 10,6 C 66 % 1022,4 hPa 0,0 l/m 0 min 0 min 296 W/m 19,3 km/h (3 Bft) 95,74 %
18.04.2021 13:12 12,6 C 13,3 C 10,6 C 66 % 1022,4 hPa 0,0 l/m 0 min 0 min 287 W/m 22,5 km/h (4 Bft) 97,87 %
18.04.2021 13:14 12,6 C 13,3 C 10,0 C 66 % 1022,4 hPa 0,0 l/m 0 min 0 min 286 W/m 12,9 km/h (3 Bft) 97,83 %
18.04.2021 13:16 12,5 C 13,3 C 10,0 C 66 % 1022,4 hPa 0,0 l/m 0 min 0 min 276 W/m 16,1 km/h (3 Bft) 97,87 %
18.04.2021 13:18 12,5 C 13,3 C 10,0 C 66 % 1022,4 hPa 0,0 l/m 0 min 0 min 272 W/m 19,3 km/h (3 Bft) 97,92 %
18.04.2021 13:20 12,5 C 13,3 C 10,0 C 66 % 1022,4 hPa 0,0 l/m 0 min 0 min 277 W/m 19,3 km/h (3 Bft) 97,67 %
18.04.2021 13:22 12,5 C 13,3 C 10,0 C 66 % 1022,3 hPa 0,0 l/m 0 min 0 min 286 W/m 12,9 km/h (3 Bft) 98,04 %
18.04.2021 13:24 12,5 C 13,3 C 10,0 C 66 % 1022,2 hPa 0,0 l/m 0 min 0 min 295 W/m 12,9 km/h (3 Bft) 97,87 %
18.04.2021 13:26 12,5 C 13,3 C 10,0 C 66 % 1022,2 hPa 0,0 l/m 0 min 0 min 307 W/m 16,1 km/h (3 Bft) 97,83 %
18.04.2021 13:28 12,5 C 13,3 C 10,6 C 66 % 1022,2 hPa 0,0 l/m 0 min 0 min 322 W/m 16,1 km/h (3 Bft) 97,87 %
18.04.2021 13:30 12,5 C 13,9 C 10,6 C 66 % 1022,2 hPa 0,0 l/m 0 min 0 min 333 W/m 12,9 km/h (3 Bft) 97,87 %
18.04.2021 13:32 12,5 C 13,9 C 10,6 C 66 % 1022,2 hPa 0,0 l/m 0 min 0 min 339 W/m 16,1 km/h (3 Bft) 97,92 %
18.04.2021 13:34 12,6 C 13,9 C 10,6 C 66 % 1022,2 hPa 0,0 l/m 0 min 0 min 339 W/m 9,7 km/h (2 Bft) 97,87 %
18.04.2021 13:36 12,6 C 13,9 C 11,1 C 66 % 1022,2 hPa 0,0 l/m 0 min 0 min 328 W/m 6,4 km/h (2 Bft) 97,87 %
18.04.2021 13:38 12,7 C 13,9 C 11,1 C 66 % 1022,2 hPa 0,0 l/m 0 min 0 min 320 W/m 12,9 km/h (3 Bft) 97,83 %
18.04.2021 13:40 12,8 C 13,9 C 11,1 C 66 % 1022,2 hPa 0,0 l/m 0 min 0 min 301 W/m 12,9 km/h (3 Bft) 95,74 %
18.04.2021 13:42 12,8 C 13,9 C 10,6 C 66 % 1022,2 hPa 0,0 l/m 0 min 0 min 280 W/m 16,1 km/h (3 Bft) 97,87 %
18.04.2021 13:44 12,8 C 13,9 C 10,6 C 66 % 1022,2 hPa 0,0 l/m 0 min 0 min 285 W/m 16,1 km/h (3 Bft) 97,87 %
18.04.2021 13:46 12,8 C 13,9 C 10,6 C 66 % 1022,2 hPa 0,0 l/m 0 min 0 min 314 W/m 9,7 km/h (2 Bft) 97,87 %
18.04.2021 13:48 12,9 C 13,9 C 11,1 C 67 % 1022,2 hPa 0,0 l/m 0 min 0 min 343 W/m 16,1 km/h (3 Bft) 97,87 %
18.04.2021 13:50 12,9 C 13,9 C 11,1 C 66 % 1022,2 hPa 0,0 l/m 2 min 0 min 383 W/m 12,9 km/h (3 Bft) 97,83 %
18.04.2021 13:52 12,9 C 14,4 C 11,1 C 66 % 1022,2 hPa 0,0 l/m 2 min 0 min 447 W/m 9,7 km/h (2 Bft) 100,00 %
18.04.2021 13:54 13,0 C 15,0 C 11,7 C 66 % 1022,2 hPa 0,0 l/m 2 min 0 min 461 W/m 16,1 km/h (3 Bft) 97,87 %
18.04.2021 13:56 13,0 C 14,4 C 11,7 C 66 % 1022,2 hPa 0,0 l/m 2 min 0 min 476 W/m 19,3 km/h (3 Bft) 97,87 %
18.04.2021 13:58 13,1 C 15,0 C 11,7 C 65 % 1022,1 hPa 0,0 l/m 2 min 0 min 499 W/m 9,7 km/h (2 Bft) 95,74 %
18.04.2021 14:00 13,1 C 15,0 C 11,7 C 65 % 1022,1 hPa 0,0 l/m 2 min 0 min 587 W/m 6,4 km/h (2 Bft) 97,87 %
18.04.2021 14:02 13,2 C 15,6 C 12,3 C 66 % 1022,2 hPa 0,0 l/m 2 min 0 min 573 W/m 12,9 km/h (3 Bft) 97,83 %
18.04.2021 14:04 13,3 C 15,6 C 11,7 C 66 % 1022,1 hPa 0,0 l/m 2 min 0 min 437 W/m 16,1 km/h (3 Bft) 95,74 %
18.04.2021 14:06 13,4 C 15,6 C 11,7 C 65 % 1022,1 hPa 0,0 l/m 2 min 0 min 450 W/m 16,1 km/h (3 Bft) 93,62 %
18.04.2021 14:08 13,4 C 15,6 C 12,3 C 65 % 1022,0 hPa 0,0 l/m 2 min 0 min 518 W/m 16,1 km/h (3 Bft) 95,74 %
18.04.2021 14:10 13,5 C 15,6 C 12,3 C 65 % 1022,0 hPa 0,0 l/m 2 min 0 min 540 W/m 12,9 km/h (3 Bft) 93,62 %
18.04.2021 14:12 13,6 C 16,1 C 12,3 C 66 % 1022,0 hPa 0,0 l/m 2 min 0 min 501 W/m 12,9 km/h (3 Bft) 97,87 %
18.04.2021 14:14 13,7 C 16,7 C 12,3 C 65 % 1022,0 hPa 0,0 l/m 2 min 0 min 460 W/m 19,3 km/h (3 Bft) 95,65 %
18.04.2021 14:16 13,8 C 16,7 C 12,3 C 64 % 1022,0 hPa 0,0 l/m 2 min 0 min 461 W/m 19,3 km/h (3 Bft) 95,74 %
18.04.2021 14:18 13,8 C 16,7 C 12,3 C 64 % 1022,0 hPa 0,0 l/m 2 min 0 min 482 W/m 22,5 km/h (4 Bft) 95,74 %
18.04.2021 14:20 13,9 C 16,7 C 12,3 C 64 % 1022,0 hPa 0,0 l/m 2 min 0 min 479 W/m 9,7 km/h (2 Bft) 91,49 %
18.04.2021 14:22 13,9 C 16,7 C 12,3 C 64 % 1022,0 hPa 0,0 l/m 2 min 0 min 505 W/m 25,7 km/h (4 Bft) 95,74 %
18.04.2021 14:24 14,0 C 17,2 C 12,3 C 63 % 1021,9 hPa 0,0 l/m 2 min 0 min 494 W/m 19,3 km/h (3 Bft) 95,74 %
18.04.2021 14:26 14,0 C 16,7 C 12,3 C 64 % 1022,0 hPa 0,0 l/m 2 min 0 min 465 W/m 19,3 km/h (3 Bft) 95,65 %
18.04.2021 14:28 14,1 C 16,7 C 12,3 C 63 % 1021,9 hPa 0,0 l/m 2 min 0 min 456 W/m 22,5 km/h (4 Bft) 95,74 %
18.04.2021 14:30 14,2 C 16,1 C 12,3 C 63 % 1022,0 hPa 0,0 l/m 2 min 0 min 473 W/m 16,1 km/h (3 Bft) 95,74 %
18.04.2021 14:32 14,2 C 16,7 C 12,3 C 63 % 1021,9 hPa 0,0 l/m 2 min 0 min 474 W/m 12,9 km/h (3 Bft) 95,74 %
18.04.2021 14:34 14,2 C 16,7 C 12,8 C 63 % 1021,9 hPa 0,0 l/m 2 min 0 min 439 W/m 16,1 km/h (3 Bft) 95,74 %
18.04.2021 14:36 14,2 C 16,1 C 12,3 C 63 % 1021,9 hPa 0,0 l/m 2 min 0 min 455 W/m 19,3 km/h (3 Bft) 95,65 %
18.04.2021 14:38 14,3 C 16,1 C 12,3 C 63 % 1021,9 hPa 0,0 l/m 2 min 0 min 466 W/m 9,7 km/h (2 Bft) 93,62 %
18.04.2021 14:40 14,3 C 16,7 C 12,8 C 63 % 1021,8 hPa 0,0 l/m 2 min 0 min 484 W/m 16,1 km/h (3 Bft) 95,74 %
18.04.2021 14:42 14,4 C 16,7 C 12,8 C 63 % 1021,8 hPa 0,0 l/m 2 min 0 min 486 W/m 12,9 km/h (3 Bft) 95,74 %
18.04.2021 14:44 14,4 C 17,2 C 12,8 C 63 % 1021,9 hPa 0,0 l/m 2 min 0 min 444 W/m 19,3 km/h (3 Bft) 95,74 %
18.04.2021 14:46 14,4 C 17,2 C 12,8 C 62 % 1021,9 hPa 0,0 l/m 2 min 0 min 421 W/m 12,9 km/h (3 Bft) 95,74 %
18.04.2021 14:48 14,5 C 17,2 C 12,3 C 62 % 1021,9 hPa 0,0 l/m 2 min 0 min 419 W/m 22,5 km/h (4 Bft) 95,74 %
18.04.2021 14:50 14,5 C 16,7 C 12,8 C 62 % 1021,9 hPa 0,0 l/m 2 min 0 min 435 W/m 16,1 km/h (3 Bft) 95,65 %
18.04.2021 14:52 14,5 C 16,7 C 12,8 C 63 % 1021,8 hPa 0,0 l/m 2 min 0 min 499 W/m 16,1 km/h (3 Bft) 95,74 %
18.04.2021 14:54 14,5 C 17,2 C 12,8 C 63 % 1021,8 hPa 0,0 l/m 2 min 0 min 555 W/m 19,3 km/h (3 Bft) 93,62 %
18.04.2021 14:56 14,5 C 17,8 C 12,8 C 62 % 1021,8 hPa 0,0 l/m 2 min 0 min 786 W/m 16,1 km/h (3 Bft) 100,00 %
18.04.2021 14:58 14,6 C 18,3 C 12,8 C 62 % 1021,8 hPa 0,0 l/m 2 min 0 min 719 W/m 9,7 km/h (2 Bft) 97,87 %
18.04.2021 15:00 14,8 C 19,4 C 13,4 C 63 % 1021,8 hPa 0,0 l/m 2 min 0 min 950 W/m 9,7 km/h (2 Bft) 100,00 %
18.04.2021 15:02 14,9 C 20,6 C 13,4 C 63 % 1021,7 hPa 0,0 l/m 2 min 0 min 669 W/m 16,1 km/h (3 Bft) 100,00 %
18.04.2021 15:04 15,1 C 19,4 C 13,4 C 63 % 1021,7 hPa 0,0 l/m 2 min 0 min 866 W/m 12,9 km/h (3 Bft) 97,87 %
18.04.2021 15:06 15,3 C 18,3 C 13,4 C 62 % 1021,7 hPa 0,0 l/m 2 min 0 min 467 W/m 16,1 km/h (3 Bft) 100,00 %
18.04.2021 15:08 15,3 C 17,2 C 13,4 C 61 % 1021,7 hPa 0,0 l/m 2 min 0 min 395 W/m 22,5 km/h (4 Bft) 97,83 %
18.04.2021 15:10 15,3 C 16,7 C 12,8 C 61 % 1021,6 hPa 0,0 l/m 2 min 0 min 371 W/m 25,7 km/h (4 Bft) 100,00 %
18.04.2021 15:12 15,2 C 16,1 C 12,8 C 61 % 1021,6 hPa 0,0 l/m 2 min 0 min 358 W/m 25,7 km/h (4 Bft) 100,00 %
18.04.2021 15:14 15,1 C 15,6 C 12,3 C 61 % 1021,6 hPa 0,0 l/m 2 min 0 min 349 W/m 12,9 km/h (3 Bft) 97,87 %
18.04.2021 15:16 15,1 C 15,6 C 12,3 C 62 % 1021,6 hPa 0,0 l/m 0 min 0 min 329 W/m 25,7 km/h (4 Bft) 100,00 %
18.04.2021 15:18 15,1 C 15,6 C 12,3 C 62 % 1021,6 hPa 0,0 l/m 0 min 0 min 305 W/m 22,5 km/h (4 Bft) 100,00 %
18.04.2021 15:20 15,0 C 15,6 C 12,3 C 62 % 1021,6 hPa 0,0 l/m 0 min 0 min 283 W/m 12,9 km/h (3 Bft) 100,00 %
18.04.2021 15:22 14,9 C 15,0 C 12,3 C 62 % 1021,6 hPa 0,0 l/m 0 min 0 min 275 W/m 9,7 km/h (2 Bft) 100,00 %
18.04.2021 15:24 14,9 C 15,0 C 12,3 C 62 % 1021,5 hPa 0,0 l/m 0 min 0 min 273 W/m 16,1 km/h (3 Bft) 100,00 %
18.04.2021 15:26 14,9 C 15,0 C 12,3 C 63 % 1021,5 hPa 0,0 l/m 0 min 0 min 269 W/m 16,1 km/h (3 Bft) 100,00 %
18.04.2021 15:28 14,8 C 15,0 C 12,3 C 63 % 1021,5 hPa 0,0 l/m 0 min 0 min 265 W/m 16,1 km/h (3 Bft) 100,00 %
18.04.2021 15:30 14,8 C 14,4 C 11,7 C 63 % 1021,5 hPa 0,0 l/m 0 min 0 min 268 W/m 16,1 km/h (3 Bft) 100,00 %
18.04.2021 15:32 14,7 C 14,4 C 12,3 C 63 % 1021,5 hPa 0,0 l/m 0 min 0 min 275 W/m 19,3 km/h (3 Bft) 100,00 %
18.04.2021 15:34 14,6 C 14,4 C 11,7 C 63 % 1021,5 hPa 0,0 l/m 0 min 0 min 274 W/m 19,3 km/h (3 Bft) 100,00 %
18.04.2021 15:36 14,5 C 15,0 C 11,7 C 63 % 1021,5 hPa 0,0 l/m 0 min 0 min 274 W/m 16,1 km/h (3 Bft) 100,00 %
18.04.2021 15:38 14,5 C 15,0 C 11,7 C 63 % 1021,5 hPa 0,0 l/m 0 min 0 min 284 W/m 12,9 km/h (3 Bft) 100,00 %
18.04.2021 15:40 14,5 C 15,0 C 11,7 C 63 % 1021,5 hPa 0,0 l/m 0 min 0 min 288 W/m 19,3 km/h (3 Bft) 100,00 %
18.04.2021 15:42 14,5 C 15,0 C 12,3 C 63 % 1021,5 hPa 0,0 l/m 0 min 0 min 286 W/m 9,7 km/h (2 Bft) 100,00 %
18.04.2021 15:44 14,4 C 15,0 C 11,7 C 63 % 1021,5 hPa 0,0 l/m 0 min 0 min 275 W/m 9,7 km/h (2 Bft) 100,00 %
18.04.2021 15:46 14,5 C 15,0 C 12,3 C 64 % 1021,5 hPa 0,0 l/m 0 min 0 min 278 W/m 9,7 km/h (2 Bft) 100,00 %
18.04.2021 15:48 14,5 C 15,6 C 12,3 C 63 % 1021,4 hPa 0,0 l/m 0 min 0 min 277 W/m 12,9 km/h (3 Bft) 100,00 %
18.04.2021 15:50 14,5 C 15,6 C 12,3 C 62 % 1021,4 hPa 0,0 l/m 0 min 0 min 245 W/m 16,1 km/h (3 Bft) 100,00 %
18.04.2021 15:52 14,5 C 15,0 C 12,3 C 62 % 1021,4 hPa 0,0 l/m 0 min 0 min 231 W/m 12,9 km/h (3 Bft) 100,00 %
18.04.2021 15:54 14,5 C 15,0 C 12,3 C 62 % 1021,4 hPa 0,0 l/m 0 min 0 min 240 W/m 16,1 km/h (3 Bft) 100,00 %
18.04.2021 15:56 14,5 C 15,0 C 11,7 C 62 % 1021,3 hPa 0,0 l/m 0 min 0 min 269 W/m 6,4 km/h (2 Bft) 97,87 %
18.04.2021 15:58 14,5 C 15,6 C 11,7 C 62 % 1021,3 hPa 0,0 l/m 2 min 0 min 343 W/m 19,3 km/h (3 Bft) 100,00 %
18.04.2021 16:00 14,5 C 15,6 C 11,7 C 62 % 1021,3 hPa 0,0 l/m 2 min 0 min 337 W/m 12,9 km/h (3 Bft) 100,00 %
18.04.2021 16:02 14,5 C 16,1 C 11,7 C 62 % 1021,3 hPa 0,0 l/m 2 min 0 min 355 W/m 12,9 km/h (3 Bft) 100,00 %
18.04.2021 16:04 14,5 C 16,7 C 12,3 C 62 % 1021,3 hPa 0,0 l/m 2 min 0 min 401 W/m 19,3 km/h (3 Bft) 97,87 %
18.04.2021 16:06 14,6 C 17,2 C 12,3 C 62 % 1021,3 hPa 0,0 l/m 2 min 0 min 440 W/m 9,7 km/h (2 Bft) 100,00 %
18.04.2021 16:08 14,7 C 17,8 C 12,3 C 62 % 1021,3 hPa 0,0 l/m 2 min 0 min 538 W/m 12,9 km/h (3 Bft) 100,00 %
18.04.2021 16:10 14,8 C 17,8 C 12,8 C 61 % 1021,3 hPa 0,0 l/m 2 min 0 min 451 W/m 16,1 km/h (3 Bft) 100,00 %
18.04.2021 16:12 14,9 C 18,9 C 12,8 C 61 % 1021,3 hPa 0,0 l/m 2 min 0 min 418 W/m 12,9 km/h (3 Bft) 100,00 %
18.04.2021 16:14 15,0 C 18,3 C 12,8 C 61 % 1021,3 hPa 0,0 l/m 2 min 0 min 401 W/m 16,1 km/h (3 Bft) 95,74 %
18.04.2021 16:16 15,0 C 17,8 C 12,8 C 61 % 1021,3 hPa 0,0 l/m 2 min 0 min 312 W/m 16,1 km/h (3 Bft) 100,00 %
18.04.2021 16:18 15,1 C 17,2 C 12,8 C 61 % 1021,2 hPa 0,0 l/m 0 min 0 min 259 W/m 19,3 km/h (3 Bft) 100,00 %
18.04.2021 16:20 15,1 C 17,2 C 12,8 C 62 % 1021,3 hPa 0,0 l/m 0 min 0 min 236 W/m 12,9 km/h (3 Bft) 100,00 %
18.04.2021 16:22 15,1 C 17,2 C 12,8 C 61 % 1021,2 hPa 0,0 l/m 0 min 0 min 241 W/m 12,9 km/h (3 Bft) 100,00 %
18.04.2021 16:24 15,2 C 18,3 C 12,8 C 61 % 1021,2 hPa 0,0 l/m 0 min 0 min 284 W/m 9,7 km/h (2 Bft) 95,74 %
18.04.2021 16:26 15,2 C 17,8 C 12,8 C 60 % 1021,2 hPa 0,0 l/m 2 min 0 min 294 W/m 16,1 km/h (3 Bft) 100,00 %
18.04.2021 16:28 15,2 C 17,8 C 12,3 C 59 % 1021,2 hPa 0,0 l/m 0 min 0 min 276 W/m 16,1 km/h (3 Bft) 100,00 %
18.04.2021 16:30 15,3 C 18,3 C 12,8 C 59 % 1021,1 hPa 0,0 l/m 2 min 0 min 325 W/m 12,9 km/h (3 Bft) 97,83 %
18.04.2021 16:32 15,3 C 18,9 C 12,8 C 59 % 1021,1 hPa 0,0 l/m 0 min 0 min 283 W/m 9,7 km/h (2 Bft) 100,00 %
18.04.2021 16:34 15,4 C 20,0 C 12,8 C 59 % 1021,1 hPa 0,0 l/m 0 min 0 min 244 W/m 9,7 km/h (2 Bft) 100,00 %
18.04.2021 16:36 15,5 C 21,7 C 13,4 C 60 % 1021,0 hPa 0,0 l/m 2 min 0 min 636 W/m 22,5 km/h (4 Bft) 100,00 %
18.04.2021 16:38 15,5 C 21,7 C 13,4 C 58 % 1021,0 hPa 0,0 l/m 2 min 0 min 621 W/m 32,2 km/h (5 Bft) 100,00 %
18.04.2021 16:40 15,7 C 22,8 C 13,4 C 59 % 1021,0 hPa 0,0 l/m 2 min 0 min 680 W/m 16,1 km/h (3 Bft) 100,00 %
18.04.2021 16:42 15,9 C 23,9 C 13,9 C 60 % 1021,0 hPa 0,0 l/m 2 min 0 min 692 W/m 16,1 km/h (3 Bft) 100,00 %
18.04.2021 16:44 16,1 C 23,9 C 13,9 C 59 % 1021,1 hPa 0,0 l/m 2 min 0 min 699 W/m 19,3 km/h (3 Bft) 97,87 %
18.04.2021 16:46 16,2 C 24,4 C 13,9 C 58 % 1021,0 hPa 0,0 l/m 2 min 0 min 693 W/m 9,7 km/h (2 Bft) 100,00 %
18.04.2021 16:48 16,4 C 25,0 C 14,5 C 58 % 1020,9 hPa 0,0 l/m 2 min 0 min 685 W/m 22,5 km/h (4 Bft) 100,00 %
18.04.2021 16:50 16,4 C 23,9 C 13,9 C 57 % 1021,0 hPa 0,0 l/m 2 min 0 min 659 W/m 19,3 km/h (3 Bft) 95,74 %
18.04.2021 16:52 16,5 C 23,9 C 13,9 C 58 % 1021,0 hPa 0,0 l/m 2 min 0 min 645 W/m 22,5 km/h (4 Bft) 97,87 %
18.04.2021 16:54 16,6 C 23,3 C 14,5 C 58 % 1020,9 hPa 0,0 l/m 2 min 0 min 671 W/m 19,3 km/h (3 Bft) 95,65 %
18.04.2021 16:56 16,7 C 21,7 C 13,9 C 58 % 1020,9 hPa 0,0 l/m 2 min 0 min 441 W/m 19,3 km/h (3 Bft) 95,74 %
18.04.2021 16:58 16,7 C 22,2 C 13,9 C 58 % 1020,9 hPa 0,0 l/m 2 min 0 min 486 W/m 22,5 km/h (4 Bft) 97,87 %
18.04.2021 17:00 16,8 C 22,8 C 14,5 C 57 % 1020,9 hPa 0,0 l/m 2 min 0 min 568 W/m 16,1 km/h (3 Bft) 97,87 %
18.04.2021 17:02 16,9 C 23,3 C 14,5 C 57 % 1020,9 hPa 0,0 l/m 2 min 0 min 597 W/m 19,3 km/h (3 Bft) 93,62 %
18.04.2021 17:04 16,9 C 22,8 C 14,5 C 58 % 1020,8 hPa 0,0 l/m 2 min 0 min 607 W/m 19,3 km/h (3 Bft) 93,62 %
18.04.2021 17:06 16,9 C 22,2 C 14,5 C 57 % 1020,8 hPa 0,0 l/m 2 min 0 min 608 W/m 16,1 km/h (3 Bft) 93,48 %
18.04.2021 17:08 16,9 C 22,8 C 14,5 C 58 % 1020,8 hPa 0,0 l/m 2 min 0 min 609 W/m 9,7 km/h (2 Bft) 92,45 %
18.04.2021 17:10 16,9 C 22,2 C 14,5 C 58 % 1020,7 hPa 0,0 l/m 2 min 0 min 604 W/m 12,9 km/h (3 Bft) 94,44 %
18.04.2021 17:12 16,9 C 21,7 C 14,5 C 58 % 1020,7 hPa 0,0 l/m 2 min 0 min 561 W/m 19,3 km/h (3 Bft) 91,38 %
18.04.2021 17:14 16,8 C 20,0 C 13,9 C 57 % 1020,7 hPa 0,0 l/m 2 min 0 min 524 W/m 19,3 km/h (3 Bft) 90,00 %
18.04.2021 17:16 16,6 C 18,9 C 13,9 C 58 % 1020,8 hPa 0,0 l/m 2 min 0 min 327 W/m 12,9 km/h (3 Bft) 93,62 %
18.04.2021 17:18 16,5 C 17,8 C 13,9 C 58 % 1020,8 hPa 0,0 l/m 2 min 0 min 251 W/m 22,5 km/h (4 Bft) 93,62 %
18.04.2021 17:20 16,5 C 17,2 C 13,4 C 58 % 1020,7 hPa 0,0 l/m 2 min 0 min 252 W/m 32,2 km/h (5 Bft) 93,62 %
18.04.2021 17:22 16,4 C 17,2 C 13,4 C 58 % 1020,7 hPa 0,0 l/m 2 min 0 min 242 W/m 19,3 km/h (3 Bft) 91,30 %
18.04.2021 17:24 16,3 C 16,7 C 13,4 C 58 % 1020,8 hPa 0,0 l/m 2 min 0 min 240 W/m 19,3 km/h (3 Bft) 93,62 %
18.04.2021 17:26 16,1 C 16,7 C 13,4 C 59 % 1020,8 hPa 0,0 l/m 2 min 0 min 251 W/m 22,5 km/h (4 Bft) 91,49 %
18.04.2021 17:28 16,1 C 17,2 C 13,4 C 59 % 1020,7 hPa 0,0 l/m 2 min 0 min 255 W/m 22,5 km/h (4 Bft) 93,75 %
18.04.2021 17:30 16,0 C 16,7 C 13,4 C 59 % 1020,7 hPa 0,0 l/m 2 min 0 min 263 W/m 16,1 km/h (3 Bft) 91,30 %
18.04.2021 17:32 16,0 C 16,7 C 13,4 C 59 % 1020,7 hPa 0,0 l/m 2 min 0 min 250 W/m 19,3 km/h (3 Bft) 93,62 %
18.04.2021 17:35 15,9 C 16,7 C 12,8 C 59 % 1020,7 hPa 0,0 l/m 3 min 0 min 259 W/m 25,7 km/h (4 Bft) 95,71 %
18.04.2021 17:36 15,9 C 17,8 C 13,4 C 59 % 1020,7 hPa 0,0 l/m 1 min 0 min 274 W/m 19,3 km/h (3 Bft) 95,83 %
18.04.2021 17:38 15,9 C 18,9 C 13,4 C 60 % 1020,7 hPa 0,0 l/m 2 min 0 min 465 W/m 22,5 km/h (4 Bft) 95,74 %
18.04.2021 17:40 15,9 C 17,8 C 13,4 C 59 % 1020,7 hPa 0,0 l/m 2 min 0 min 365 W/m 9,7 km/h (2 Bft) 93,48 %
18.04.2021 17:42 15,9 C 18,3 C 13,4 C 59 % 1020,7 hPa 0,0 l/m 2 min 0 min 241 W/m 9,7 km/h (2 Bft) 95,74 %
18.04.2021 17:44 15,9 C 18,3 C 13,4 C 60 % 1020,7 hPa 0,0 l/m 2 min 0 min 260 W/m 12,9 km/h (3 Bft) 95,74 %
18.04.2021 17:46 15,9 C 17,8 C 13,4 C 60 % 1020,7 hPa 0,0 l/m 2 min 0 min 379 W/m 16,1 km/h (3 Bft) 97,87 %
18.04.2021 17:48 15,9 C 17,2 C 13,4 C 61 % 1020,7 hPa 0,0 l/m 0 min 0 min 178 W/m 12,9 km/h (3 Bft) 95,74 %
18.04.2021 17:50 15,9 C 16,7 C 13,4 C 60 % 1020,7 hPa 0,0 l/m 0 min 0 min 146 W/m 12,9 km/h (3 Bft) 95,74 %
18.04.2021 17:52 15,9 C 16,1 C 12,8 C 60 % 1020,7 hPa 0,0 l/m 0 min 0 min 135 W/m 25,7 km/h (4 Bft) 97,83 %
18.04.2021 17:54 15,8 C 15,6 C 12,8 C 60 % 1020,7 hPa 0,0 l/m 0 min 0 min 133 W/m 12,9 km/h (3 Bft) 97,87 %
18.04.2021 17:56 15,8 C 15,6 C 12,8 C 60 % 1020,7 hPa 0,0 l/m 0 min 0 min 143 W/m 19,3 km/h (3 Bft) 97,87 %
18.04.2021 17:58 15,7 C 15,6 C 12,3 C 60 % 1020,7 hPa 0,0 l/m 0 min 0 min 166 W/m 25,7 km/h (4 Bft) 91,49 %
18.04.2021 18:00 15,6 C 16,1 C 12,3 C 60 % 1020,6 hPa 0,0 l/m 2 min 0 min 289 W/m 19,3 km/h (3 Bft) 97,87 %
18.04.2021 18:02 15,6 C 17,8 C 12,8 C 60 % 1020,6 hPa 0,0 l/m 2 min 0 min 358 W/m 22,5 km/h (4 Bft) 97,87 %
18.04.2021 18:04 15,6 C 18,9 C 13,4 C 60 % 1020,6 hPa 0,0 l/m 2 min 0 min 396 W/m 22,5 km/h (4 Bft) 100,00 %
18.04.2021 18:06 15,6 C 18,9 C 13,4 C 61 % 1020,6 hPa 0,0 l/m 2 min 0 min 363 W/m 16,1 km/h (3 Bft) 100,00 %
18.04.2021 18:08 15,6 C 18,3 C 13,4 C 61 % 1020,6 hPa 0,0 l/m 0 min 0 min 174 W/m 12,9 km/h (3 Bft) 100,00 %
18.04.2021 18:10 15,7 C 17,2 C 13,4 C 61 % 1020,7 hPa 0,0 l/m 0 min 0 min 107 W/m 9,7 km/h (2 Bft) 100,00 %
18.04.2021 18:12 15,6 C 16,7 C 12,8 C 61 % 1020,7 hPa 0,0 l/m 0 min 0 min 88 W/m 16,1 km/h (3 Bft) 97,87 %
18.04.2021 18:14 15,6 C 15,6 C 12,8 C 61 % 1020,7 hPa 0,0 l/m 0 min 0 min 76 W/m 9,7 km/h (2 Bft) 100,00 %
18.04.2021 18:16 15,6 C 15,6 C 12,8 C 61 % 1020,7 hPa 0,0 l/m 0 min 0 min 70 W/m 16,1 km/h (3 Bft) 100,00 %
18.04.2021 18:18 15,5 C 15,0 C 12,3 C 61 % 1020,7 hPa 0,0 l/m 0 min 0 min 69 W/m 22,5 km/h (4 Bft) 100,00 %
18.04.2021 18:20 15,5 C 15,0 C 12,3 C 61 % 1020,7 hPa 0,0 l/m 0 min 0 min 66 W/m 12,9 km/h (3 Bft) 100,00 %
18.04.2021 18:22 15,4 C 14,4 C 12,3 C 62 % 1020,7 hPa 0,0 l/m 0 min 0 min 66 W/m 19,3 km/h (3 Bft) 100,00 %
18.04.2021 18:24 15,4 C 14,4 C 11,7 C 62 % 1020,7 hPa 0,0 l/m 0 min 0 min 69 W/m 9,7 km/h (2 Bft) 100,00 %
18.04.2021 18:26 15,3 C 14,4 C 11,7 C 62 % 1020,7 hPa 0,0 l/m 0 min 0 min 74 W/m 6,4 km/h (2 Bft) 100,00 %
18.04.2021 18:28 15,3 C 14,4 C 11,7 C 62 % 1020,7 hPa 0,0 l/m 0 min 0 min 72 W/m 12,9 km/h (3 Bft) 100,00 %
18.04.2021 18:30 15,2 C 14,4 C 11,7 C 63 % 1020,7 hPa 0,0 l/m 0 min 0 min 66 W/m 9,7 km/h (2 Bft) 100,00 %
18.04.2021 18:32 15,1 C 14,4 C 11,7 C 63 % 1020,7 hPa 0,0 l/m 0 min 0 min 60 W/m 12,9 km/h (3 Bft) 100,00 %
18.04.2021 18:34 15,1 C 14,4 C 11,7 C 63 % 1020,7 hPa 0,0 l/m 0 min 0 min 57 W/m 16,1 km/h (3 Bft) 95,74 %
18.04.2021 18:36 15,1 C 14,4 C 11,7 C 63 % 1020,7 hPa 0,0 l/m 0 min 0 min 58 W/m 16,1 km/h (3 Bft) 100,00 %
18.04.2021 18:38 15,0 C 14,4 C 11,7 C 63 % 1020,7 hPa 0,0 l/m 0 min 0 min 61 W/m 12,9 km/h (3 Bft) 100,00 %
18.04.2021 18:40 15,0 C 14,4 C 11,7 C 63 % 1020,7 hPa 0,0 l/m 0 min 0 min 66 W/m 12,9 km/h (3 Bft) 100,00 %
18.04.2021 18:42 15,0 C 14,4 C 11,7 C 64 % 1020,7 hPa 0,0 l/m 0 min 0 min 67 W/m 6,4 km/h (2 Bft) 100,00 %
18.04.2021 18:44 14,9 C 14,4 C 11,7 C 64 % 1020,7 hPa 0,0 l/m 0 min 0 min 64 W/m 9,7 km/h (2 Bft) 100,00 %
18.04.2021 18:46 14,9 C 14,4 C 11,7 C 64 % 1020,7 hPa 0,0 l/m 0 min 0 min 62 W/m 9,7 km/h (2 Bft) 100,00 %
18.04.2021 18:48 14,9 C 13,9 C 11,7 C 64 % 1020,7 hPa 0,0 l/m 0 min 0 min 63 W/m 6,4 km/h (2 Bft) 100,00 %
18.04.2021 18:50 14,9 C 13,9 C 11,7 C 64 % 1020,8 hPa 0,0 l/m 0 min 0 min 69 W/m 16,1 km/h (3 Bft) 100,00 %
18.04.2021 18:52 14,8 C 13,9 C 11,7 C 64 % 1020,8 hPa 0,0 l/m 0 min 0 min 70 W/m 16,1 km/h (3 Bft) 100,00 %
18.04.2021 18:54 14,8 C 13,9 C 11,7 C 64 % 1020,8 hPa 0,0 l/m 0 min 0 min 71 W/m 12,9 km/h (3 Bft) 100,00 %
18.04.2021 18:56 14,8 C 13,9 C 11,7 C 64 % 1020,7 hPa 0,0 l/m 0 min 0 min 70 W/m 9,7 km/h (2 Bft) 100,00 %
18.04.2021 18:58 14,7 C 13,9 C 11,1 C 65 % 1020,7 hPa 0,0 l/m 0 min 0 min 68 W/m 9,7 km/h (2 Bft) 100,00 %
18.04.2021 19:00 14,7 C 13,9 C 11,1 C 65 % 1020,7 hPa 0,0 l/m 0 min 0 min 67 W/m 19,3 km/h (3 Bft) 100,00 %
18.04.2021 19:02 14,6 C 13,9 C 11,1 C 65 % 1020,7 hPa 0,0 l/m 0 min 0 min 68 W/m 6,4 km/h (2 Bft) 97,87 %
18.04.2021 19:04 14,6 C 13,9 C 11,1 C 65 % 1020,7 hPa 0,0 l/m 0 min 0 min 65 W/m 12,9 km/h (3 Bft) 100,00 %
18.04.2021 19:06 14,6 C 13,9 C 11,1 C 65 % 1020,7 hPa 0,0 l/m 0 min 0 min 62 W/m 16,1 km/h (3 Bft) 100,00 %
18.04.2021 19:08 14,6 C 13,9 C 11,1 C 65 % 1020,8 hPa 0,0 l/m 0 min 0 min 59 W/m 16,1 km/h (3 Bft) 100,00 %
18.04.2021 19:10 14,6 C 13,9 C 11,1 C 65 % 1020,8 hPa 0,0 l/m 0 min 0 min 54 W/m 12,9 km/h (3 Bft) 100,00 %
18.04.2021 19:12 14,6 C 13,9 C 11,1 C 65 % 1020,8 hPa 0,0 l/m 0 min 0 min 47 W/m 3,2 km/h (1 Bft) 97,87 %
18.04.2021 19:14 14,5 C 13,9 C 11,1 C 65 % 1020,8 hPa 0,0 l/m 0 min 0 min 44 W/m 9,7 km/h (2 Bft) 100,00 %
18.04.2021 19:16 14,5 C 13,9 C 11,1 C 65 % 1020,8 hPa 0,0 l/m 0 min 0 min 44 W/m 9,7 km/h (2 Bft) 100,00 %
18.04.2021 19:18 14,5 C 13,9 C 11,1 C 66 % 1020,8 hPa 0,0 l/m 0 min 0 min 46 W/m 16,1 km/h (3 Bft) 100,00 %
18.04.2021 19:20 14,5 C 13,9 C 11,1 C 66 % 1020,7 hPa 0,0 l/m 0 min 0 min 48 W/m 9,7 km/h (2 Bft) 100,00 %
18.04.2021 19:22 14,5 C 13,9 C 11,1 C 66 % 1020,8 hPa 0,0 l/m 0 min 0 min 51 W/m 6,4 km/h (2 Bft) 100,00 %
18.04.2021 19:24 14,5 C 13,9 C 11,1 C 66 % 1020,8 hPa 0,0 l/m 0 min 0 min 50 W/m 6,4 km/h (2 Bft) 100,00 %
18.04.2021 19:26 14,4 C 13,9 C 11,1 C 66 % 1020,8 hPa 0,0 l/m 0 min 0 min 49 W/m 12,9 km/h (3 Bft) 100,00 %
18.04.2021 19:28 14,4 C 13,9 C 11,1 C 65 % 1020,8 hPa 0,0 l/m 0 min 0 min 47 W/m 12,9 km/h (3 Bft) 100,00 %
18.04.2021 19:30 14,4 C 13,9 C 11,1 C 66 % 1020,8 hPa 0,0 l/m 0 min 0 min 47 W/m 9,7 km/h (2 Bft) 100,00 %
18.04.2021 19:32 14,4 C 13,9 C 11,1 C 66 % 1020,8 hPa 0,0 l/m 0 min 0 min 45 W/m 9,7 km/h (2 Bft) 100,00 %
18.04.2021 19:34 14,3 C 13,9 C 11,1 C 66 % 1020,8 hPa 0,0 l/m 0 min 0 min 43 W/m 16,1 km/h (3 Bft) 95,74 %
18.04.2021 19:36 14,3 C 13,9 C 11,1 C 65 % 1020,8 hPa 0,0 l/m 0 min 0 min 42 W/m 6,4 km/h (2 Bft) 97,87 %
18.04.2021 19:38 14,3 C 13,9 C 11,1 C 66 % 1020,8 hPa 0,0 l/m 0 min 0 min 39 W/m 6,4 km/h (2 Bft) 97,87 %
18.04.2021 19:42 14,3 C 13,9 C 11,1 C 66 % 1020,9 hPa 0,0 l/m 0 min 0 min 36 W/m 9,7 km/h (2 Bft) 97,50 %
18.04.2021 19:44 14,3 C 13,9 C 11,1 C 66 % 1020,8 hPa 0,0 l/m 0 min 0 min 34 W/m 9,7 km/h (2 Bft) 95,74 %
18.04.2021 19:46 14,3 C 13,3 C 11,1 C 66 % 1020,9 hPa 0,0 l/m 0 min 0 min 31 W/m 6,4 km/h (2 Bft) 97,87 %
18.04.2021 19:48 14,3 C 13,3 C 11,1 C 66 % 1020,8 hPa 0,0 l/m 0 min 0 min 28 W/m 9,7 km/h (2 Bft) 95,74 %
18.04.2021 19:50 14,2 C 13,3 C 10,6 C 66 % 1020,8 hPa 0,0 l/m 0 min 0 min 26 W/m 6,4 km/h (2 Bft) 97,87 %
18.04.2021 19:52 14,2 C 13,3 C 10,6 C 66 % 1020,8 hPa 0,0 l/m 0 min 0 min 25 W/m 9,7 km/h (2 Bft) 97,83 %
18.04.2021 19:54 14,2 C 13,3 C 10,6 C 66 % 1020,8 hPa 0,0 l/m 0 min 0 min 23 W/m 16,1 km/h (3 Bft) 97,87 %
18.04.2021 19:56 14,2 C 13,3 C 10,6 C 66 % 1020,8 hPa 0,0 l/m 0 min 0 min 23 W/m 6,4 km/h (2 Bft) 97,87 %
18.04.2021 19:58 14,2 C 13,3 C 10,6 C 66 % 1020,8 hPa 0,0 l/m 0 min 0 min 25 W/m 3,2 km/h (1 Bft) 97,87 %
18.04.2021 20:00 14,2 C 13,3 C 10,6 C 67 % 1020,8 hPa 0,0 l/m 0 min 0 min 26 W/m 3,2 km/h (1 Bft) 95,74 %
18.04.2021 20:02 14,2 C 13,3 C 10,6 C 67 % 1020,8 hPa 0,0 l/m 0 min 0 min 28 W/m 9,7 km/h (2 Bft) 97,87 %
18.04.2021 20:04 14,2 C 13,3 C 10,6 C 67 % 1020,8 hPa 0,0 l/m 0 min 0 min 29 W/m 9,7 km/h (2 Bft) 97,83 %
18.04.2021 20:06 14,2 C 13,3 C 10,6 C 67 % 1020,8 hPa 0,0 l/m 0 min 0 min 30 W/m 6,4 km/h (2 Bft) 95,74 %
18.04.2021 20:08 14,2 C 13,3 C 10,6 C 67 % 1020,9 hPa 0,0 l/m 2 min 0 min 31 W/m 9,7 km/h (2 Bft) 95,74 %
18.04.2021 20:10 14,2 C 13,3 C 10,6 C 67 % 1020,9 hPa 0,0 l/m 2 min 0 min 30 W/m 9,7 km/h (2 Bft) 97,87 %
18.04.2021 20:12 14,1 C 13,3 C 10,6 C 67 % 1020,8 hPa 0,0 l/m 2 min 0 min 28 W/m 12,9 km/h (3 Bft) 95,74 %
18.04.2021 20:14 14,1 C 13,3 C 10,6 C 67 % 1020,9 hPa 0,0 l/m 2 min 0 min 28 W/m 3,2 km/h (1 Bft) 93,48 %
18.04.2021 20:16 14,1 C 13,3 C 10,6 C 68 % 1020,9 hPa 0,0 l/m 2 min 0 min 25 W/m 3,2 km/h (1 Bft) 93,62 %
18.04.2021 20:18 14,1 C 13,3 C 10,6 C 68 % 1020,9 hPa 0,0 l/m 2 min 0 min 22 W/m 9,7 km/h (2 Bft) 93,62 %
18.04.2021 20:20 14,0 C 12,8 C 10,6 C 69 % 1020,8 hPa 0,0 l/m 2 min 0 min 20 W/m 6,4 km/h (2 Bft) 93,62 %
18.04.2021 20:22 14,0 C 12,8 C 10,6 C 69 % 1020,8 hPa 0,0 l/m 0 min 0 min 17 W/m 6,4 km/h (2 Bft) 93,62 %
18.04.2021 20:24 14,0 C 12,8 C 10,0 C 70 % 1020,8 hPa 0,0 l/m 0 min 0 min 14 W/m 12,9 km/h (3 Bft) 95,74 %
18.04.2021 20:26 13,9 C 12,8 C 10,0 C 70 % 1020,8 hPa 0,0 l/m 0 min 0 min 12 W/m 6,4 km/h (2 Bft) 95,65 %
18.04.2021 20:28 13,9 C 12,8 C 10,0 C 70 % 1020,9 hPa 0,0 l/m 0 min 0 min 11 W/m 3,2 km/h (1 Bft) 95,74 %
18.04.2021 20:30 13,8 C 12,8 C 10,0 C 70 % 1020,9 hPa 0,0 l/m 0 min 0 min 11 W/m 6,4 km/h (2 Bft) 93,62 %
18.04.2021 20:32 13,8 C 12,8 C 10,0 C 70 % 1020,8 hPa 0,0 l/m 0 min 0 min 9 W/m 3,2 km/h (1 Bft) 95,74 %
18.04.2021 20:34 13,8 C 12,2 C 10,0 C 71 % 1020,9 hPa 0,0 l/m 0 min 0 min 7 W/m 12,9 km/h (3 Bft) 95,74 %
18.04.2021 20:36 13,7 C 12,2 C 10,0 C 71 % 1020,9 hPa 0,0 l/m 0 min 0 min 6 W/m 12,9 km/h (3 Bft) 95,74 %
18.04.2021 20:38 13,6 C 12,2 C 10,0 C 71 % 1020,9 hPa 0,0 l/m 0 min 0 min 5 W/m 9,7 km/h (2 Bft) 93,48 %
18.04.2021 20:40 13,6 C 12,2 C 10,0 C 70 % 1020,9 hPa 0,0 l/m 0 min 0 min 3 W/m 6,4 km/h (2 Bft) 95,74 %
18.04.2021 20:42 13,5 C 12,2 C 9,5 C 70 % 1020,9 hPa 0,0 l/m 0 min 0 min 0 W/m 6,4 km/h (2 Bft) 95,74 %
18.04.2021 20:44 13,5 C 12,2 C 9,5 C 70 % 1020,9 hPa 0,0 l/m 0 min 0 min 0 W/m 6,4 km/h (2 Bft) 93,62 %
18.04.2021 20:46 13,5 C 12,2 C 9,5 C 70 % 1020,9 hPa 0,0 l/m 0 min 0 min 0 W/m 6,4 km/h (2 Bft) 95,74 %
18.04.2021 20:48 13,5 C 12,2 C 9,5 C 70 % 1020,9 hPa 0,0 l/m 0 min 0 min 0 W/m 3,2 km/h (1 Bft) 95,74 %
18.04.2021 20:50 13,4 C 12,2 C 9,5 C 70 % 1020,9 hPa 0,0 l/m 0 min 0 min 0 W/m 3,2 km/h (1 Bft) 93,48 %
18.04.2021 20:52 13,4 C 12,2 C 9,5 C 71 % 1020,9 hPa 0,0 l/m 0 min 0 min 0 W/m 3,2 km/h (1 Bft) 95,74 %
18.04.2021 20:54 13,4 C 12,2 C 9,5 C 71 % 1020,9 hPa 0,0 l/m 0 min 0 min 0 W/m 3,2 km/h (1 Bft) 95,74 %
18.04.2021 20:56 13,3 C 12,2 C 9,5 C 71 % 1021,0 hPa 0,0 l/m 0 min 0 min 0 W/m 3,2 km/h (1 Bft) 97,87 %
18.04.2021 20:58 13,3 C 11,7 C 9,5 C 72 % 1021,0 hPa 0,0 l/m 0 min 0 min 0 W/m 3,2 km/h (1 Bft) 93,62 %
18.04.2021 21:00 13,3 C 11,7 C 9,5 C 72 % 1021,0 hPa 0,0 l/m 0 min 0 min 0 W/m 3,2 km/h (1 Bft) 97,87 %
18.04.2021 21:02 13,2 C 11,7 C 9,5 C 72 % 1021,0 hPa 0,0 l/m 0 min 0 min 0 W/m 3,2 km/h (1 Bft) 95,74 %
18.04.2021 21:04 13,1 C 11,7 C 8,9 C 72 % 1021,0 hPa 0,0 l/m 0 min 0 min 0 W/m 3,2 km/h (1 Bft) 97,83 %
18.04.2021 21:06 13,1 C 11,7 C 8,9 C 72 % 1020,9 hPa 0,0 l/m 0 min 0 min 0 W/m 0,0 km/h (0 Bft) 97,87 %
18.04.2021 21:08 13,1 C 11,7 C 8,9 C 73 % 1021,0 hPa 0,0 l/m 0 min 0 min 0 W/m 3,2 km/h (1 Bft) 97,87 %
18.04.2021 21:10 13,0 C 11,7 C 8,9 C 73 % 1021,0 hPa 0,0 l/m 0 min 0 min 0 W/m 3,2 km/h (1 Bft) 97,56 %
18.04.2021 21:12 13,0 C 11,7 C 8,9 C 73 % 1020,9 hPa 0,0 l/m 0 min 0 min 0 W/m 3,2 km/h (1 Bft) 97,87 %
18.04.2021 21:14 12,9 C 11,7 C 8,9 C 73 % 1021,0 hPa 0,0 l/m 0 min 0 min 0 W/m 3,2 km/h (1 Bft) 95,74 %
18.04.2021 21:16 12,9 C 11,7 C 8,9 C 74 % 1021,0 hPa 0,0 l/m 0 min 0 min 0 W/m 3,2 km/h (1 Bft) 97,83 %
18.04.2021 21:18 12,8 C 11,7 C 8,9 C 74 % 1021,0 hPa 0,0 l/m 0 min 0 min 0 W/m 3,2 km/h (1 Bft) 97,87 %
18.04.2021 21:20 12,8 C 11,7 C 8,9 C 74 % 1021,0 hPa 0,0 l/m 0 min 0 min 0 W/m 0,0 km/h (0 Bft) 100,00 %
18.04.2021 21:22 12,7 C 11,7 C 8,9 C 74 % 1021,1 hPa 0,0 l/m 0 min 0 min 0 W/m 3,2 km/h (1 Bft) 100,00 %
18.04.2021 21:24 12,7 C 11,7 C 8,9 C 74 % 1021,1 hPa 0,0 l/m 0 min 0 min 0 W/m 3,2 km/h (1 Bft) 97,87 %
18.04.2021 21:26 12,6 C 11,7 C 8,9 C 74 % 1021,1 hPa 0,0 l/m 0 min 0 min 0 W/m 0,0 km/h (0 Bft) 100,00 %
18.04.2021 21:28 12,6 C 11,7 C 8,9 C 75 % 1021,1 hPa 0,0 l/m 0 min 0 min 0 W/m 6,4 km/h (2 Bft) 100,00 %
18.04.2021 21:30 12,6 C 11,7 C 8,9 C 75 % 1021,1 hPa 0,0 l/m 0 min 0 min 0 W/m 6,4 km/h (2 Bft) 100,00 %
18.04.2021 21:32 12,6 C 11,7 C 8,9 C 75 % 1021,1 hPa 0,0 l/m 0 min 0 min 0 W/m 3,2 km/h (1 Bft) 96,55 %
18.04.2021 21:34 12,5 C 11,7 C 8,9 C 75 % 1021,1 hPa 0,0 l/m 0 min 0 min 0 W/m 3,2 km/h (1 Bft) 97,96 %
18.04.2021 21:36 12,5 C 11,7 C 8,9 C 75 % 1021,1 hPa 0,0 l/m 0 min 0 min 0 W/m 3,2 km/h (1 Bft) 100,00 %
18.04.2021 21:38 12,5 C 11,1 C 8,9 C 75 % 1021,1 hPa 0,0 l/m 0 min 0 min 0 W/m 0,0 km/h (0 Bft) 100,00 %
18.04.2021 21:40 12,5 C 11,1 C 8,9 C 75 % 1021,1 hPa 0,0 l/m 0 min 0 min 0 W/m 3,2 km/h (1 Bft) 100,00 %
18.04.2021 21:42 12,4 C 11,1 C 8,9 C 75 % 1021,0 hPa 0,0 l/m 0 min 0 min 0 W/m 3,2 km/h (1 Bft) 97,87 %
18.04.2021 21:44 12,4 C 11,1 C 8,9 C 76 % 1021,1 hPa 0,0 l/m 0 min 0 min 0 W/m 3,2 km/h (1 Bft) 100,00 %
18.04.2021 21:46 12,4 C 11,1 C 8,9 C 76 % 1021,0 hPa 0,0 l/m 0 min 0 min 0 W/m 3,2 km/h (1 Bft) 97,87 %
18.04.2021 21:51 12,3 C 11,1 C 8,9 C 76 % 1021,0 hPa 0,0 l/m 0 min 0 min 0 W/m 3,2 km/h (1 Bft) 98,41 %
18.04.2021 21:52 12,3 C 11,1 C 8,9 C 76 % 1021,0 hPa 0,0 l/m 0 min 0 min 0 W/m 0,0 km/h (0 Bft) 90,91 %
18.04.2021 21:54 12,2 C 11,1 C 8,4 C 76 % 1021,1 hPa 0,0 l/m 0 min 0 min 0 W/m 3,2 km/h (1 Bft) 93,62 %
18.04.2021 21:56 12,2 C 11,1 C 8,4 C 76 % 1021,1 hPa 0,0 l/m 0 min 0 min 0 W/m 0,0 km/h (0 Bft) 97,87 %
18.04.2021 21:58 12,1 C 11,1 C 8,4 C 76 % 1021,1 hPa 0,0 l/m 0 min 0 min 0 W/m 3,2 km/h (1 Bft) 100,00 %
18.04.2021 22:00 12,1 C 11,1 C 8,4 C 76 % 1021,1 hPa 0,0 l/m 0 min 0 min 0 W/m 3,2 km/h (1 Bft) 93,62 %
18.04.2021 22:02 12,1 C 11,1 C 8,4 C 76 % 1021,0 hPa 0,0 l/m 0 min 0 min 0 W/m 6,4 km/h (2 Bft) 97,87 %
18.04.2021 22:04 12,1 C 11,1 C 8,4 C 76 % 1021,1 hPa 0,0 l/m 0 min 0 min 0 W/m 3,2 km/h (1 Bft) 100,00 %
18.04.2021 22:06 12,0 C 11,1 C 8,4 C 77 % 1021,0 hPa 0,0 l/m 0 min 0 min 0 W/m 3,2 km/h (1 Bft) 100,00 %
18.04.2021 22:08 12,0 C 11,1 C 8,4 C 77 % 1021,1 hPa 0,0 l/m 0 min 0 min 0 W/m 3,2 km/h (1 Bft) 100,00 %
18.04.2021 22:10 12,0 C 11,1 C 8,4 C 77 % 1021,1 hPa 0,0 l/m 0 min 0 min 0 W/m 3,2 km/h (1 Bft) 100,00 %
18.04.2021 22:12 12,0 C 11,1 C 8,4 C 77 % 1021,1 hPa 0,0 l/m 0 min 0 min 0 W/m 3,2 km/h (1 Bft) 100,00 %
18.04.2021 22:14 12,0 C 11,1 C 8,4 C 77 % 1021,1 hPa 0,0 l/m 0 min 0 min 0 W/m 3,2 km/h (1 Bft) 100,00 %
18.04.2021 22:16 11,9 C 11,1 C 8,4 C 76 % 1021,1 hPa 0,0 l/m 0 min 0 min 0 W/m 6,4 km/h (2 Bft) 100,00 %
18.04.2021 22:18 11,9 C 11,1 C 8,4 C 76 % 1021,1 hPa 0,0 l/m 0 min 0 min 0 W/m 3,2 km/h (1 Bft) 100,00 %
18.04.2021 22:20 11,9 C 11,1 C 8,4 C 77 % 1021,0 hPa 0,0 l/m 0 min 0 min 0 W/m 3,2 km/h (1 Bft) 100,00 %
18.04.2021 22:22 11,9 C 11,1 C 8,4 C 77 % 1021,1 hPa 0,0 l/m 0 min 0 min 0 W/m 3,2 km/h (1 Bft) 100,00 %
18.04.2021 22:24 11,9 C 11,1 C 8,4 C 77 % 1021,1 hPa 0,0 l/m 0 min 0 min 0 W/m 6,4 km/h (2 Bft) 93,62 %
18.04.2021 22:26 11,9 C 11,1 C 8,4 C 77 % 1021,1 hPa 0,0 l/m 0 min 0 min 0 W/m 6,4 km/h (2 Bft) 97,87 %
18.04.2021 22:28 11,9 C 11,1 C 8,4 C 77 % 1021,1 hPa 0,0 l/m 0 min 0 min 0 W/m 6,4 km/h (2 Bft) 95,65 %
18.04.2021 22:30 11,9 C 11,1 C 8,4 C 76 % 1021,1 hPa 0,0 l/m 0 min 0 min 0 W/m 6,4 km/h (2 Bft) 91,49 %
18.04.2021 22:32 11,8 C 11,1 C 8,4 C 76 % 1021,0 hPa 0,0 l/m 0 min 0 min 0 W/m 9,7 km/h (2 Bft) 93,75 %
18.04.2021 22:34 11,8 C 11,1 C 8,4 C 76 % 1021,1 hPa 0,0 l/m 0 min 0 min 0 W/m 3,2 km/h (1 Bft) 91,49 %
18.04.2021 22:36 11,8 C 11,1 C 8,4 C 76 % 1021,0 hPa 0,0 l/m 0 min 0 min 0 W/m 6,4 km/h (2 Bft) 89,36 %
18.04.2021 22:38 11,8 C 11,1 C 8,4 C 76 % 1021,0 hPa 0,0 l/m 0 min 0 min 0 W/m 6,4 km/h (2 Bft) 97,87 %
18.04.2021 22:40 11,8 C 11,1 C 8,4 C 76 % 1021,0 hPa 0,0 l/m 0 min 0 min 0 W/m 3,2 km/h (1 Bft) 91,49 %
18.04.2021 22:42 11,8 C 11,1 C 8,4 C 76 % 1021,0 hPa 0,0 l/m 0 min 0 min 0 W/m 3,2 km/h (1 Bft) 91,49 %
18.04.2021 22:44 11,8 C 11,1 C 8,4 C 76 % 1021,0 hPa 0,0 l/m 0 min 0 min 0 W/m 6,4 km/h (2 Bft) 95,74 %
18.04.2021 22:46 11,8 C 11,1 C 8,4 C 77 % 1021,0 hPa 0,0 l/m 0 min 0 min 0 W/m 6,4 km/h (2 Bft) 95,74 %
18.04.2021 22:48 11,8 C 11,1 C 8,4 C 77 % 1021,0 hPa 0,0 l/m 0 min 0 min 0 W/m 3,2 km/h (1 Bft) 87,23 %
18.04.2021 22:50 11,8 C 11,1 C 8,4 C 77 % 1021,0 hPa 0,0 l/m 0 min 0 min 0 W/m 3,2 km/h (1 Bft) 67,39 %
18.04.2021 22:52 11,7 C 11,1 C 8,4 C 77 % 1021,0 hPa 0,0 l/m 0 min 0 min 0 W/m 3,2 km/h (1 Bft) 72,34 %
18.04.2021 22:54 11,7 C 11,1 C 8,4 C 77 % 1021,0 hPa 0,0 l/m 0 min 0 min 0 W/m 3,2 km/h (1 Bft) 85,11 %
18.04.2021 22:56 11,7 C 11,1 C 8,4 C 77 % 1021,0 hPa 0,0 l/m 0 min 0 min 0 W/m 6,4 km/h (2 Bft) 65,31 %
18.04.2021 22:58 11,7 C 11,1 C 8,4 C 77 % 1021,0 hPa 0,0 l/m 0 min 0 min 0 W/m 3,2 km/h (1 Bft) 59,57 %
18.04.2021 23:00 11,7 C 11,1 C 8,4 C 77 % 1020,9 hPa 0,0 l/m 0 min 0 min 0 W/m 6,4 km/h (2 Bft) 78,26 %
18.04.2021 23:02 11,6 C 11,1 C 8,4 C 77 % 1020,9 hPa 0,0 l/m 0 min 0 min 0 W/m 6,4 km/h (2 Bft) 70,21 %
18.04.2021 23:04 11,6 C 11,1 C 8,4 C 77 % 1021,0 hPa 0,0 l/m 0 min 0 min 0 W/m 3,2 km/h (1 Bft) 72,34 %
18.04.2021 23:06 11,6 C 11,1 C 8,4 C 77 % 1020,9 hPa 0,0 l/m 0 min 0 min 0 W/m 6,4 km/h (2 Bft) 78,72 %
18.04.2021 23:08 11,6 C 11,1 C 8,4 C 77 % 1020,9 hPa 0,0 l/m 0 min 0 min 0 W/m 9,7 km/h (2 Bft) 48,94 %
18.04.2021 23:10 11,6 C 11,1 C 8,4 C 77 % 1020,9 hPa 0,0 l/m 0 min 0 min 0 W/m 3,2 km/h (1 Bft) 19,15 %
18.04.2021 23:12 11,6 C 10,6 C 8,4 C 77 % 1020,8 hPa 0,0 l/m 0 min 0 min 0 W/m 9,7 km/h (2 Bft) 58,70 %
18.04.2021 23:14 11,6 C 10,6 C 8,4 C 77 % 1020,8 hPa 0,0 l/m 0 min 0 min 0 W/m 3,2 km/h (1 Bft) 91,49 %
18.04.2021 23:16 11,6 C 10,6 C 8,4 C 77 % 1020,8 hPa 0,0 l/m 0 min 0 min 0 W/m 6,4 km/h (2 Bft) 85,11 %
18.04.2021 23:18 11,5 C 10,6 C 8,4 C 77 % 1020,8 hPa 0,0 l/m 0 min 0 min 0 W/m 9,7 km/h (2 Bft) 82,98 %
18.04.2021 23:20 11,5 C 10,6 C 8,4 C 77 % 1020,8 hPa 0,0 l/m 0 min 0 min 0 W/m 6,4 km/h (2 Bft) 93,62 %
18.04.2021 23:22 11,5 C 10,6 C 8,4 C 77 % 1020,8 hPa 0,0 l/m 0 min 0 min 0 W/m 9,7 km/h (2 Bft) 100,00 %
18.04.2021 23:24 11,5 C 10,6 C 8,4 C 77 % 1020,8 hPa 0,0 l/m 0 min 0 min 0 W/m 12,9 km/h (3 Bft) 97,83 %
18.04.2021 23:26 11,5 C 10,6 C 8,4 C 77 % 1020,8 hPa 0,0 l/m 0 min 0 min 0 W/m 12,9 km/h (3 Bft) 97,87 %
18.04.2021 23:28 11,4 C 10,6 C 8,4 C 77 % 1020,7 hPa 0,0 l/m 0 min 0 min 0 W/m 9,7 km/h (2 Bft) 100,00 %
18.04.2021 23:30 11,4 C 10,6 C 7,8 C 77 % 1020,8 hPa 0,0 l/m 0 min 0 min 0 W/m 6,4 km/h (2 Bft) 91,49 %
18.04.2021 23:32 11,4 C 10,6 C 7,8 C 77 % 1020,8 hPa 0,0 l/m 0 min 0 min 0 W/m 9,7 km/h (2 Bft) 78,72 %
18.04.2021 23:34 11,3 C 10,6 C 7,8 C 78 % 1020,7 hPa 0,0 l/m 0 min 0 min 0 W/m 12,9 km/h (3 Bft) 93,48 %
18.04.2021 23:36 11,3 C 10,6 C 7,8 C 78 % 1020,7 hPa 0,0 l/m 0 min 0 min 0 W/m 12,9 km/h (3 Bft) 97,87 %
18.04.2021 23:38 11,3 C 10,0 C 7,8 C 78 % 1020,7 hPa 0,0 l/m 0 min 0 min 0 W/m 9,7 km/h (2 Bft) 80,85 %
18.04.2021 23:40 11,2 C 10,0 C 7,8 C 78 % 1020,8 hPa 0,0 l/m 0 min 0 min 0 W/m 3,2 km/h (1 Bft) 95,74 %
18.04.2021 23:42 11,1 C 10,0 C 7,8 C 78 % 1020,7 hPa 0,0 l/m 0 min 0 min 0 W/m 6,4 km/h (2 Bft) 68,09 %
18.04.2021 23:44 11,1 C 10,0 C 7,8 C 78 % 1020,7 hPa 0,0 l/m 0 min 0 min 0 W/m 6,4 km/h (2 Bft) 27,66 %
18.04.2021 23:46 11,1 C 10,0 C 7,3 C 78 % 1020,7 hPa 0,0 l/m 0 min 0 min 0 W/m 12,9 km/h (3 Bft) 91,30 %
18.04.2021 23:48 11,0 C 10,0 C 7,3 C 78 % 1020,7 hPa 0,0 l/m 0 min 0 min 0 W/m 6,4 km/h (2 Bft) 89,36 %
18.04.2021 23:50 11,0 C 10,0 C 7,3 C 78 % 1020,7 hPa 0,0 l/m 0 min 0 min 0 W/m 9,7 km/h (2 Bft) 97,87 %
18.04.2021 23:52 10,9 C 10,0 C 7,3 C 79 % 1020,7 hPa 0,0 l/m 0 min 0 min 0 W/m 6,4 km/h (2 Bft) 95,74 %
18.04.2021 23:54 10,9 C 10,0 C 7,3 C 79 % 1020,7 hPa 0,0 l/m 0 min 0 min 0 W/m 6,4 km/h (2 Bft) 97,87 %
18.04.2021 23:56 10,9 C 10,0 C 7,3 C 79 % 1020,7 hPa 0,0 l/m 0 min 0 min 0 W/m 9,7 km/h (2 Bft) 97,87 %
18.04.2021 23:58 10,9 C 10,0 C 7,3 C 79 % 1020,6 hPa 0,0 l/m 0 min 0 min 0 W/m 6,4 km/h (2 Bft) 100,00 %
_ Min-Zeit 03:58 03:12 03:54 16:50 18:00 - - - - 01:06 23:10
Minimum _ 4,5 C 3,9 C 1,1 C 57 % 1020,6 hPa - - - - 0,0 km/h (0 Bft) 19,15 %
_ Max-Zeit 17:02 16:48 16:48 08:16 01:16 00:00 17:35 00:00 15:00 16:38 00:12
Maximum _ 16,9 C 25,0 C 14,5 C 90 % 1023,6 hPa 0,0 l/m 3 min 0 min 950 W/m 32,2 km/h
O-NO (5 Bft)
100,00 %
Durchschnitt _ 10,0 C 10,3 C 7,4 C 74 % 1022,1 hPa #0,0 l/m #4:50 h #0 min. 253 W/m 9,5 km/h (2 Bft) 96,42 %
© 2021 W. Hausmann